WGN9611 EBOS-RKSI
Flight info
| Callsign | WGN9611 |
|---|---|
| Flight time | N/A |
| Altitude | 31000 |
| Route | FERDI UL607 REMBA M624 DIK M150 PITES DCT NOMBO Y161 RIDAR Z98 WLD T702 BADIT DCT GOTAR DCT MOPUG DCT LUGEB DCT UDROS UM859 RERVA/N0489F330 UM859 KARDE UN644 ROLIN DCT TETRO DCT BARAD M747 SUBUT T916 BALUN/K0902F330 T916 AKALI/K0896F350 T916 PIGAL M610 RULAD/K0898S1070 A343 POSOT B215 FKG W188 BATUS/K0898S1130 W188 LIKMI W270 DKO W69 HUR B339 LADIX W34 VAPGU W100 ORAVA W201 UNSEK A326 DONVO G597 AGAVO/N0488F390 Y644 REBIT REBIT2H |
| Aircraft | MD11/H-SDE1E2E3FGHIJ2J3J4J5M1RWXY/LB1D1 |
Departure
| Time | N/A |
|---|---|
| Airport | Ostend-Bruges International Airport (EBOS) |
Arrival
| Time | 2026-05-04 20:08 |
|---|---|
| Airport | Incheon International Airport (RKSI) |
| Time | Latitude | Longitude | Altitude | Speed | Heading |
|---|---|---|---|---|---|
| 2026-05-04 09:19 | 48.86805 | 10.36467 | 31054 ft | 490 kts | 141° |
| 2026-05-04 09:19 | 48.81831 | 10.43624 | 31056 ft | 491 kts | 139° |
| 2026-05-04 09:20 | 48.77127 | 10.51073 | 31054 ft | 493 kts | 137° |
| 2026-05-04 09:20 | 48.72403 | 10.58734 | 31059 ft | 495 kts | 136° |
| 2026-05-04 09:21 | 48.67703 | 10.66274 | 31049 ft | 496 kts | 137° |
| 2026-05-04 09:21 | 48.63589 | 10.74693 | 31052 ft | 503 kts | 120° |
| 2026-05-04 09:22 | 48.61287 | 10.84720 | 31051 ft | 510 kts | 102° |
| 2026-05-04 09:22 | 48.60444 | 10.95401 | 31039 ft | 512 kts | 99° |
| 2026-05-04 09:23 | 48.59222 | 11.05978 | 31044 ft | 510 kts | 105° |
| 2026-05-04 09:23 | 48.57307 | 11.16262 | 31047 ft | 508 kts | 111° |
| 2026-05-04 09:25 | 48.47723 | 11.56430 | 31043 ft | 510 kts | 112° |
| 2026-05-04 09:26 | 48.45336 | 11.66412 | 31044 ft | 510 kts | 112° |
| 2026-05-04 09:26 | 48.42911 | 11.76448 | 31046 ft | 510 kts | 112° |
| 2026-05-04 09:27 | 48.40484 | 11.86488 | 31047 ft | 510 kts | 112° |
| 2026-05-04 09:27 | 48.38072 | 11.96438 | 31046 ft | 510 kts | 112° |
| 2026-05-04 09:28 | 48.35636 | 12.06450 | 31042 ft | 510 kts | 112° |
| 2026-05-04 09:28 | 48.33188 | 12.16460 | 31033 ft | 509 kts | 111° |
| 2026-05-04 09:29 | 48.30737 | 12.26436 | 31030 ft | 509 kts | 112° |
| 2026-05-04 09:29 | 48.28275 | 12.36413 | 31026 ft | 509 kts | 112° |
| 2026-05-04 09:30 | 48.25805 | 12.46379 | 31027 ft | 509 kts | 112° |
| 2026-05-04 09:30 | 48.23325 | 12.56324 | 31030 ft | 509 kts | 112° |
| 2026-05-04 09:31 | 48.20827 | 12.66193 | 31027 ft | 509 kts | 112° |
| 2026-05-04 09:31 | 48.18316 | 12.76114 | 31031 ft | 509 kts | 113° |
| 2026-05-04 09:32 | 48.15461 | 12.85786 | 31030 ft | 508 kts | 117° |
| 2026-05-04 09:34 | 48.03137 | 13.23741 | 31038 ft | 507 kts | 117° |
| 2026-05-04 09:34 | 48.00062 | 13.33214 | 31035 ft | 507 kts | 117° |
| 2026-05-04 09:35 | 47.96975 | 13.42680 | 31033 ft | 507 kts | 117° |
| 2026-05-04 09:35 | 47.93903 | 13.52067 | 31034 ft | 507 kts | 117° |
| 2026-05-04 09:37 | 47.81443 | 13.89762 | 31037 ft | 507 kts | 117° |
| 2026-05-04 09:38 | 47.78275 | 13.99125 | 31040 ft | 507 kts | 117° |
| 2026-05-04 09:38 | 47.75114 | 14.08498 | 31041 ft | 507 kts | 117° |
| 2026-05-04 09:39 | 47.71963 | 14.17871 | 31036 ft | 507 kts | 117° |
| 2026-05-04 09:39 | 47.68811 | 14.27227 | 31048 ft | 506 kts | 117° |
| 2026-05-04 09:40 | 47.66184 | 14.34996 | 31054 ft | 507 kts | 117° |
| 2026-05-04 09:40 | 47.63020 | 14.44322 | 31054 ft | 506 kts | 117° |
| 2026-05-04 09:42 | 47.50334 | 14.81371 | 31062 ft | 503 kts | 117° |
| 2026-05-04 09:43 | 47.47152 | 14.90583 | 31071 ft | 503 kts | 117° |
| 2026-05-04 09:43 | 47.43958 | 14.99777 | 31085 ft | 503 kts | 117° |
| 2026-05-04 09:44 | 47.40743 | 15.08889 | 31083 ft | 503 kts | 117° |
| 2026-05-04 09:46 | 47.27874 | 15.45487 | 31091 ft | 502 kts | 117° |
| 2026-05-04 09:46 | 47.24643 | 15.54611 | 31094 ft | 502 kts | 117° |
| 2026-05-04 09:47 | 47.21425 | 15.63669 | 31073 ft | 503 kts | 117° |
| 2026-05-04 09:49 | 47.08408 | 15.99996 | 31100 ft | 502 kts | 117° |
| 2026-05-04 09:51 | 46.97699 | 16.32151 | 31100 ft | 502 kts | 104° |
| 2026-05-04 09:51 | 46.96155 | 16.42112 | 31091 ft | 502 kts | 101° |
| 2026-05-04 09:52 | 46.94663 | 16.52093 | 31100 ft | 502 kts | 102° |
| 2026-05-04 09:52 | 46.93075 | 16.61968 | 31105 ft | 502 kts | 103° |
| 2026-05-04 09:53 | 46.91425 | 16.71876 | 31106 ft | 501 kts | 103° |
| 2026-05-04 09:53 | 46.89763 | 16.81768 | 31109 ft | 501 kts | 103° |
| 2026-05-04 09:54 | 46.88096 | 16.91660 | 31119 ft | 501 kts | 103° |
| 2026-05-04 09:54 | 46.86411 | 17.01610 | 31116 ft | 501 kts | 102° |
| 2026-05-04 09:55 | 46.84737 | 17.11442 | 31120 ft | 501 kts | 103° |
| 2026-05-04 09:55 | 46.83047 | 17.21312 | 31120 ft | 501 kts | 103° |
| 2026-05-04 09:56 | 46.81349 | 17.31173 | 31131 ft | 502 kts | 103° |
| 2026-05-04 09:56 | 46.79642 | 17.41027 | 31123 ft | 499 kts | 103° |
| 2026-05-04 09:57 | 46.77899 | 17.50840 | 31130 ft | 499 kts | 103° |
| 2026-05-04 09:57 | 46.76150 | 17.60636 | 31122 ft | 499 kts | 103° |
| 2026-05-04 09:58 | 46.74427 | 17.70369 | 31129 ft | 499 kts | 103° |
| 2026-05-04 09:58 | 46.72706 | 17.80094 | 31123 ft | 497 kts | 102° |
| 2026-05-04 10:00 | 46.65720 | 18.19026 | 31131 ft | 498 kts | 102° |
| 2026-05-04 10:04 | 46.53082 | 18.87006 | 31133 ft | 497 kts | 103° |
| 2026-05-04 10:04 | 46.51257 | 18.96680 | 31136 ft | 496 kts | 103° |
| 2026-05-04 10:05 | 46.49429 | 19.06329 | 31138 ft | 496 kts | 103° |
| 2026-05-04 10:05 | 46.47602 | 19.15913 | 31138 ft | 496 kts | 103° |
| 2026-05-04 10:06 | 46.45754 | 19.25562 | 31153 ft | 496 kts | 103° |
| 2026-05-04 10:06 | 46.43902 | 19.35172 | 31141 ft | 494 kts | 103° |
| 2026-05-04 10:08 | 46.37372 | 19.68704 | 31149 ft | 492 kts | 103° |
| 2026-05-04 10:08 | 46.35492 | 19.78211 | 31153 ft | 492 kts | 103° |
| 2026-05-04 10:09 | 46.33567 | 19.87721 | 31145 ft | 492 kts | 103° |
| 2026-05-04 10:09 | 46.31657 | 19.97216 | 31154 ft | 492 kts | 103° |
| 2026-05-04 10:10 | 46.29757 | 20.06703 | 31153 ft | 492 kts | 103° |
| 2026-05-04 10:10 | 46.27864 | 20.16138 | 31164 ft | 492 kts | 103° |
| 2026-05-04 10:11 | 46.25938 | 20.25686 | 31160 ft | 492 kts | 103° |
| 2026-05-04 10:11 | 46.24030 | 20.35096 | 31166 ft | 492 kts | 103° |
| 2026-05-04 10:12 | 46.22102 | 20.44556 | 31164 ft | 489 kts | 103° |
| 2026-05-04 10:12 | 46.20101 | 20.53878 | 31160 ft | 490 kts | 106° |
| 2026-05-04 10:13 | 46.17721 | 20.63108 | 31160 ft | 491 kts | 108° |
| 2026-05-04 10:13 | 46.15252 | 20.72304 | 31163 ft | 491 kts | 108° |
| 2026-05-04 10:14 | 46.12808 | 20.81487 | 31164 ft | 491 kts | 107° |
| 2026-05-04 10:16 | 46.03063 | 21.18117 | 31161 ft | 488 kts | 107° |
| 2026-05-04 10:16 | 46.00615 | 21.27229 | 31159 ft | 488 kts | 107° |
| 2026-05-04 10:17 | 45.98161 | 21.36332 | 31159 ft | 488 kts | 107° |
| 2026-05-04 10:19 | 45.88235 | 21.72620 | 31161 ft | 488 kts | 108° |
| 2026-05-04 10:19 | 45.85727 | 21.81656 | 31159 ft | 486 kts | 108° |
| 2026-05-04 10:20 | 45.83239 | 21.90657 | 31157 ft | 485 kts | 108° |
| 2026-05-04 10:20 | 45.80753 | 21.99641 | 31153 ft | 485 kts | 108° |
| 2026-05-04 10:21 | 45.78257 | 22.08624 | 31151 ft | 485 kts | 108° |
| 2026-05-04 10:21 | 45.75755 | 22.17592 | 31157 ft | 483 kts | 108° |
| 2026-05-04 10:22 | 45.72008 | 22.30956 | 31148 ft | 482 kts | 108° |
| 2026-05-04 10:23 | 45.69505 | 22.39847 | 31145 ft | 482 kts | 108° |
| 2026-05-04 10:25 | 45.59492 | 22.75058 | 31135 ft | 476 kts | 108° |
| 2026-05-04 10:25 | 45.56949 | 22.83783 | 31146 ft | 475 kts | 108° |
| 2026-05-04 10:26 | 45.54433 | 22.92450 | 31129 ft | 472 kts | 108° |
| 2026-05-04 10:26 | 45.51948 | 23.01048 | 31129 ft | 472 kts | 108° |
| 2026-05-04 10:27 | 45.49441 | 23.09703 | 31124 ft | 472 kts | 108° |
| 2026-05-04 10:27 | 45.46932 | 23.18337 | 31123 ft | 471 kts | 109° |
| 2026-05-04 10:28 | 45.44441 | 23.26871 | 31122 ft | 469 kts | 109° |
| 2026-05-04 10:28 | 45.41931 | 23.35444 | 31117 ft | 469 kts | 109° |
| 2026-05-04 10:29 | 45.39413 | 23.44018 | 31114 ft | 469 kts | 109° |
| 2026-05-04 10:29 | 45.36889 | 23.52577 | 31115 ft | 469 kts | 109° |
| 2026-05-04 10:30 | 45.34784 | 23.59694 | 31107 ft | 469 kts | 109° |
| 2026-05-04 10:30 | 45.32247 | 23.68245 | 31112 ft | 469 kts | 109° |
| 2026-05-04 10:31 | 45.29288 | 23.78185 | 31110 ft | 470 kts | 109° |
| 2026-05-04 10:32 | 45.20711 | 24.06527 | 31098 ft | 467 kts | 112° |
| 2026-05-04 10:33 | 45.18167 | 24.14945 | 31096 ft | 468 kts | 112° |
| 2026-05-04 10:33 | 45.15589 | 24.23449 | 31087 ft | 471 kts | 114° |
| 2026-05-04 10:34 | 45.12993 | 24.31979 | 31087 ft | 472 kts | 114° |
| 2026-05-04 10:34 | 45.10390 | 24.40504 | 31077 ft | 471 kts | 114° |
| 2026-05-04 10:35 | 45.07787 | 24.49003 | 31073 ft | 471 kts | 114° |
| 2026-05-04 10:35 | 45.05202 | 24.57423 | 31072 ft | 473 kts | 114° |
| 2026-05-04 10:36 | 45.02555 | 24.66001 | 31070 ft | 473 kts | 114° |
| 2026-05-04 10:36 | 44.99897 | 24.74586 | 31071 ft | 473 kts | 114° |
| 2026-05-04 10:37 | 44.97254 | 24.83098 | 31073 ft | 473 kts | 114° |
| 2026-05-04 10:37 | 44.94609 | 24.91571 | 31070 ft | 472 kts | 115° |
| 2026-05-04 10:39 | 44.85278 | 25.21092 | 31070 ft | 470 kts | 115° |
| 2026-05-04 10:40 | 44.82622 | 25.29497 | 31060 ft | 470 kts | 115° |
| 2026-05-04 10:40 | 44.79957 | 25.37901 | 31076 ft | 469 kts | 115° |
| 2026-05-04 10:41 | 44.77290 | 25.46283 | 31079 ft | 469 kts | 115° |
| 2026-05-04 10:41 | 44.74618 | 25.54654 | 31077 ft | 469 kts | 115° |
| 2026-05-04 10:42 | 44.71968 | 25.62927 | 31071 ft | 469 kts | 115° |
| 2026-05-04 10:42 | 44.69253 | 25.71376 | 31065 ft | 469 kts | 115° |
| 2026-05-04 10:43 | 44.66586 | 25.79649 | 31068 ft | 469 kts | 114° |
| 2026-05-04 10:45 | 44.55711 | 26.12930 | 31065 ft | 468 kts | 115° |
| 2026-05-04 10:45 | 44.52993 | 26.21206 | 31082 ft | 467 kts | 115° |
| 2026-05-04 10:46 | 44.50295 | 26.29420 | 31087 ft | 467 kts | 115° |
| 2026-05-04 10:46 | 44.47574 | 26.37679 | 31085 ft | 467 kts | 115° |
| 2026-05-04 10:47 | 44.44845 | 26.45937 | 31074 ft | 466 kts | 115° |
| 2026-05-04 10:47 | 44.42147 | 26.54073 | 31077 ft | 465 kts | 115° |
| 2026-05-04 10:49 | 44.31162 | 26.86946 | 31069 ft | 466 kts | 115° |
| 2026-05-04 10:50 | 44.28416 | 26.95099 | 31066 ft | 466 kts | 115° |
| 2026-05-04 10:52 | 44.17329 | 27.27568 | 31066 ft | 463 kts | 115° |
| 2026-05-04 10:52 | 44.14526 | 27.35766 | 31068 ft | 463 kts | 114° |
| 2026-05-04 10:54 | 44.03439 | 27.67954 | 31074 ft | 461 kts | 114° |
| 2026-05-04 10:56 | 43.92273 | 27.99978 | 31062 ft | 462 kts | 114° |
| 2026-05-04 10:57 | 43.89447 | 28.08014 | 31052 ft | 462 kts | 115° |
| 2026-05-04 10:57 | 43.86599 | 28.15993 | 31054 ft | 462 kts | 115° |
| 2026-05-04 10:58 | 43.83779 | 28.23916 | 31050 ft | 462 kts | 115° |
| 2026-05-04 10:58 | 43.80945 | 28.31898 | 31051 ft | 462 kts | 114° |
| 2026-05-04 10:59 | 43.78053 | 28.39648 | 31046 ft | 463 kts | 118° |
| 2026-05-04 10:59 | 43.74627 | 28.47341 | 31044 ft | 464 kts | 120° |
| 2026-05-04 11:00 | 43.71148 | 28.54849 | 31039 ft | 464 kts | 120° |
| 2026-05-04 11:02 | 43.57349 | 28.84898 | 31041 ft | 463 kts | 119° |
| 2026-05-04 11:05 | 43.31326 | 29.40807 | 31009 ft | 464 kts | 119° |
| 2026-05-04 11:06 | 43.27806 | 29.48244 | 31002 ft | 465 kts | 118° |
| 2026-05-04 11:06 | 43.24321 | 29.55626 | 30993 ft | 465 kts | 118° |
| 2026-05-04 11:10 | 42.99621 | 30.07530 | 30970 ft | 466 kts | 118° |
| 2026-05-04 11:12 | 42.85294 | 30.37140 | 30955 ft | 465 kts | 118° |
| 2026-05-04 11:12 | 42.81780 | 30.44332 | 30969 ft | 465 kts | 118° |
| 2026-05-04 11:13 | 42.78167 | 30.51743 | 30950 ft | 463 kts | 118° |
| 2026-05-04 11:13 | 42.74703 | 30.59069 | 30944 ft | 460 kts | 113° |
| 2026-05-04 11:14 | 42.72644 | 30.67095 | 30938 ft | 447 kts | 95° |
| 2026-05-04 11:16 | 42.69764 | 31.00323 | 30922 ft | 443 kts | 94° |
| 2026-05-04 11:16 | 42.68896 | 31.08689 | 30922 ft | 443 kts | 94° |
| 2026-05-04 11:17 | 42.68045 | 31.16847 | 30910 ft | 440 kts | 94° |
| 2026-05-04 11:19 | 42.64704 | 31.48436 | 30907 ft | 438 kts | 94° |
| 2026-05-04 11:19 | 42.63829 | 31.56583 | 30884 ft | 439 kts | 94° |
| 2026-05-04 11:20 | 42.62934 | 31.64845 | 30878 ft | 439 kts | 94° |
| 2026-05-04 11:20 | 42.62050 | 31.72961 | 30873 ft | 439 kts | 94° |
| 2026-05-04 11:22 | 42.58335 | 32.05920 | 30853 ft | 441 kts | 94° |
| 2026-05-04 11:23 | 42.57402 | 32.14146 | 30848 ft | 441 kts | 94° |
| 2026-05-04 11:25 | 42.54083 | 32.43023 | 30831 ft | 442 kts | 94° |
| 2026-05-04 11:25 | 42.53125 | 32.51237 | 30837 ft | 441 kts | 94° |
| 2026-05-04 11:27 | 42.48756 | 32.88096 | 30837 ft | 443 kts | 95° |
| 2026-05-04 11:28 | 42.47748 | 32.96453 | 30837 ft | 443 kts | 95° |
| 2026-05-04 11:28 | 42.46763 | 33.04563 | 30844 ft | 443 kts | 95° |
| 2026-05-04 11:29 | 42.45736 | 33.12932 | 30837 ft | 443 kts | 95° |
| 2026-05-04 11:29 | 42.44689 | 33.21164 | 30837 ft | 443 kts | 95° |
| 2026-05-04 11:33 | 42.37431 | 33.78443 | 30835 ft | 440 kts | 96° |
| 2026-05-04 11:33 | 42.36379 | 33.86599 | 30838 ft | 440 kts | 96° |
| 2026-05-04 11:34 | 42.35312 | 33.94740 | 30838 ft | 440 kts | 96° |
| 2026-05-04 11:34 | 42.34243 | 34.02878 | 30846 ft | 438 kts | 96° |
| 2026-05-04 11:35 | 42.33180 | 34.10984 | 30835 ft | 438 kts | 96° |
| 2026-05-04 11:35 | 42.32114 | 34.19089 | 30834 ft | 438 kts | 96° |
| 2026-05-04 11:36 | 42.31052 | 34.27128 | 30834 ft | 438 kts | 96° |
| 2026-05-04 11:36 | 42.29967 | 34.35284 | 30862 ft | 438 kts | 96° |
| 2026-05-04 11:37 | 42.28875 | 34.43369 | 30841 ft | 436 kts | 96° |
| 2026-05-04 11:37 | 42.27774 | 34.51429 | 30832 ft | 436 kts | 97° |
| 2026-05-04 11:38 | 42.26687 | 34.59426 | 30838 ft | 436 kts | 97° |
| 2026-05-04 11:38 | 42.25595 | 34.67450 | 30837 ft | 436 kts | 97° |
| 2026-05-04 11:39 | 42.24480 | 34.75597 | 30843 ft | 437 kts | 97° |
| 2026-05-04 11:41 | 42.20545 | 35.03755 | 30841 ft | 437 kts | 97° |
| 2026-05-04 11:41 | 42.19420 | 35.11773 | 30843 ft | 439 kts | 98° |
| 2026-05-04 11:42 | 42.18277 | 35.19858 | 30840 ft | 440 kts | 98° |
| 2026-05-04 11:42 | 42.17136 | 35.27877 | 30838 ft | 440 kts | 98° |
| 2026-05-04 11:43 | 42.15979 | 35.35969 | 30839 ft | 440 kts | 98° |
| 2026-05-04 11:43 | 42.14797 | 35.44163 | 30839 ft | 442 kts | 99° |
| 2026-05-04 11:44 | 42.13624 | 35.52211 | 30838 ft | 442 kts | 99° |
| 2026-05-04 11:44 | 42.12435 | 35.60393 | 30841 ft | 442 kts | 99° |
| 2026-05-04 11:45 | 42.11250 | 35.68563 | 30835 ft | 442 kts | 99° |
| 2026-05-04 11:45 | 42.10075 | 35.76623 | 30849 ft | 442 kts | 99° |
| 2026-05-04 11:46 | 42.08880 | 35.84789 | 30833 ft | 445 kts | 99° |
| 2026-05-04 11:46 | 42.07676 | 35.92961 | 30833 ft | 445 kts | 100° |
| 2026-05-04 11:47 | 42.06466 | 36.01130 | 30835 ft | 445 kts | 100° |
| 2026-05-04 11:47 | 42.05251 | 36.09298 | 30837 ft | 445 kts | 100° |
| 2026-05-04 11:48 | 42.04026 | 36.17489 | 30829 ft | 449 kts | 101° |
| 2026-05-04 11:48 | 42.02787 | 36.25728 | 30840 ft | 449 kts | 101° |
| 2026-05-04 11:49 | 42.01543 | 36.33963 | 30833 ft | 449 kts | 101° |
| 2026-05-04 11:49 | 42.00294 | 36.42183 | 30825 ft | 449 kts | 101° |
| 2026-05-04 11:50 | 41.99037 | 36.50390 | 30831 ft | 447 kts | 101° |
| 2026-05-04 11:50 | 41.97749 | 36.58559 | 30833 ft | 446 kts | 101° |
| 2026-05-04 11:51 | 41.96470 | 36.66718 | 30834 ft | 446 kts | 101° |
| 2026-05-04 11:51 | 41.95201 | 36.74873 | 30835 ft | 446 kts | 101° |
| 2026-05-04 11:52 | 41.93937 | 36.82990 | 30827 ft | 448 kts | 101° |
| 2026-05-04 11:52 | 41.92654 | 36.91189 | 30833 ft | 449 kts | 101° |
| 2026-05-04 11:53 | 41.91364 | 36.99391 | 30832 ft | 449 kts | 101° |
| 2026-05-04 11:53 | 41.90328 | 37.07659 | 30829 ft | 449 kts | 94° |
| 2026-05-04 11:55 | 41.89883 | 37.41417 | 30832 ft | 453 kts | 92° |
| 2026-05-04 11:56 | 41.89744 | 37.49878 | 30831 ft | 453 kts | 92° |
| 2026-05-04 11:56 | 41.89599 | 37.58344 | 30832 ft | 453 kts | 92° |
| 2026-05-04 11:57 | 41.89449 | 37.66829 | 30831 ft | 457 kts | 92° |
| 2026-05-04 11:57 | 41.89291 | 37.75356 | 30830 ft | 457 kts | 93° |
| 2026-05-04 11:58 | 41.89129 | 37.83829 | 30831 ft | 457 kts | 93° |
| 2026-05-04 11:58 | 41.88960 | 37.92349 | 30822 ft | 455 kts | 93° |
| 2026-05-04 11:59 | 41.88785 | 38.00820 | 30832 ft | 454 kts | 93° |
| 2026-05-04 11:59 | 41.88603 | 38.09324 | 30832 ft | 458 kts | 94° |
| 2026-05-04 12:00 | 41.88407 | 38.17869 | 30830 ft | 458 kts | 94° |
| 2026-05-04 12:00 | 41.88176 | 38.26416 | 30832 ft | 458 kts | 94° |
| 2026-05-04 12:01 | 41.87957 | 38.34940 | 30831 ft | 458 kts | 94° |
| 2026-05-04 12:02 | 41.87195 | 38.64989 | 30829 ft | 463 kts | 95° |
| 2026-05-04 12:03 | 41.86962 | 38.73614 | 30829 ft | 463 kts | 95° |
| 2026-05-04 12:03 | 41.86722 | 38.82248 | 30832 ft | 463 kts | 95° |
| 2026-05-04 12:04 | 41.86476 | 38.90887 | 30829 ft | 465 kts | 95° |
| 2026-05-04 12:04 | 41.86222 | 38.99561 | 30829 ft | 465 kts | 95° |
| 2026-05-04 12:05 | 41.85963 | 39.08219 | 30822 ft | 462 kts | 95° |
| 2026-05-04 12:05 | 41.85744 | 39.15364 | 30830 ft | 461 kts | 95° |
| 2026-05-04 12:06 | 41.85475 | 39.23938 | 30832 ft | 460 kts | 95° |
| 2026-05-04 12:06 | 41.85126 | 39.33923 | 30835 ft | 462 kts | 96° |
| 2026-05-04 12:07 | 41.84863 | 39.41130 | 30831 ft | 462 kts | 96° |
| 2026-05-04 12:07 | 41.84562 | 39.49750 | 30833 ft | 462 kts | 96° |
| 2026-05-04 12:08 | 41.84259 | 39.58364 | 30839 ft | 462 kts | 96° |
| 2026-05-04 12:08 | 41.83955 | 39.66943 | 30811 ft | 462 kts | 96° |
| 2026-05-04 12:09 | 41.83644 | 39.75565 | 30840 ft | 466 kts | 97° |
| 2026-05-04 12:09 | 41.83326 | 39.84256 | 30845 ft | 467 kts | 97° |
| 2026-05-04 12:10 | 41.83002 | 39.92957 | 30845 ft | 467 kts | 97° |
| 2026-05-04 12:10 | 41.82671 | 40.01657 | 30851 ft | 467 kts | 97° |
| 2026-05-04 12:11 | 41.82335 | 40.10293 | 30851 ft | 467 kts | 97° |
| 2026-05-04 12:11 | 41.81968 | 40.19083 | 30850 ft | 471 kts | 98° |
| 2026-05-04 12:12 | 41.81600 | 40.27806 | 30837 ft | 471 kts | 98° |
| 2026-05-04 12:12 | 41.81240 | 40.36475 | 30849 ft | 471 kts | 98° |
| 2026-05-04 12:14 | 41.79702 | 40.71463 | 30856 ft | 470 kts | 99° |
| 2026-05-04 12:15 | 41.79267 | 40.80259 | 30857 ft | 470 kts | 99° |
| 2026-05-04 12:15 | 41.78836 | 40.89035 | 30855 ft | 469 kts | 99° |
| 2026-05-04 12:16 | 41.78407 | 40.97705 | 30843 ft | 472 kts | 99° |
| 2026-05-04 12:16 | 41.77958 | 41.06588 | 30860 ft | 475 kts | 99° |
| 2026-05-04 12:17 | 41.77508 | 41.15428 | 30866 ft | 476 kts | 99° |
| 2026-05-04 12:17 | 41.77055 | 41.24203 | 30867 ft | 475 kts | 99° |
| 2026-05-04 12:18 | 41.76591 | 41.33038 | 30888 ft | 475 kts | 99° |
| 2026-05-04 12:18 | 41.76119 | 41.41882 | 30855 ft | 478 kts | 100° |
| 2026-05-04 12:19 | 41.75634 | 41.50808 | 30903 ft | 482 kts | 99° |
| 2026-05-04 12:19 | 41.75142 | 41.59776 | 31068 ft | 483 kts | 100° |
| 2026-05-04 12:20 | 41.74894 | 41.64272 | 31328 ft | 483 kts | 99° |
| 2026-05-04 12:20 | 41.74644 | 41.68760 | 31568 ft | 483 kts | 99° |
| 2026-05-04 12:20 | 41.74392 | 41.73244 | 31807 ft | 482 kts | 99° |
| 2026-05-04 12:20 | 41.74130 | 41.77714 | 32014 ft | 482 kts | 100° |
| 2026-05-04 12:21 | 41.73856 | 41.82190 | 32146 ft | 484 kts | 100° |
| 2026-05-04 12:21 | 41.73579 | 41.86687 | 32299 ft | 484 kts | 100° |
| 2026-05-04 12:21 | 41.73307 | 41.91191 | 32453 ft | 485 kts | 100° |
| 2026-05-04 12:21 | 41.73039 | 41.95693 | 32685 ft | 484 kts | 100° |
| 2026-05-04 12:22 | 41.72775 | 42.00177 | 32794 ft | 484 kts | 99° |
| 2026-05-04 12:22 | 41.72510 | 42.04673 | 32851 ft | 485 kts | 100° |
| 2026-05-04 12:22 | 41.71971 | 42.13704 | 32825 ft | 488 kts | 100° |
| 2026-05-04 12:23 | 41.71429 | 42.22693 | 32827 ft | 488 kts | 100° |
| 2026-05-04 12:23 | 41.70873 | 42.31771 | 32820 ft | 490 kts | 100° |
| 2026-05-04 12:24 | 41.70310 | 42.40859 | 32806 ft | 490 kts | 100° |
| 2026-05-04 12:24 | 41.69739 | 42.49949 | 32789 ft | 490 kts | 100° |
| 2026-05-04 12:25 | 41.69161 | 42.59036 | 32753 ft | 490 kts | 100° |
| 2026-05-04 12:25 | 41.68573 | 42.68149 | 32771 ft | 494 kts | 100° |
| 2026-05-04 12:26 | 41.67972 | 42.77339 | 32766 ft | 496 kts | 100° |
| 2026-05-04 12:26 | 41.67213 | 42.86374 | 32759 ft | 493 kts | 104° |
| 2026-05-04 12:27 | 41.66026 | 42.95502 | 32754 ft | 492 kts | 106° |
| 2026-05-04 12:27 | 41.64800 | 43.04449 | 32745 ft | 494 kts | 106° |
| 2026-05-04 12:28 | 41.63589 | 43.13488 | 32759 ft | 495 kts | 106° |
| 2026-05-04 12:28 | 41.62386 | 43.22562 | 32762 ft | 495 kts | 105° |
| 2026-05-04 12:29 | 41.61198 | 43.31518 | 32762 ft | 496 kts | 105° |
| 2026-05-04 12:29 | 41.59968 | 43.40713 | 32768 ft | 497 kts | 106° |
| 2026-05-04 12:30 | 41.58738 | 43.49833 | 32781 ft | 500 kts | 106° |
| 2026-05-04 12:30 | 41.57527 | 43.58788 | 32801 ft | 500 kts | 106° |
| 2026-05-04 12:31 | 41.56285 | 43.67910 | 32821 ft | 500 kts | 106° |
| 2026-05-04 12:31 | 41.55024 | 43.77104 | 32821 ft | 500 kts | 107° |
| 2026-05-04 12:32 | 41.53112 | 43.90914 | 32853 ft | 502 kts | 107° |
| 2026-05-04 12:33 | 41.51800 | 44.00081 | 32870 ft | 505 kts | 107° |
| 2026-05-04 12:33 | 41.50484 | 44.09292 | 32876 ft | 506 kts | 107° |
| 2026-05-04 12:34 | 41.49190 | 44.18429 | 32887 ft | 508 kts | 107° |
| 2026-05-04 12:34 | 41.47862 | 44.27801 | 32898 ft | 509 kts | 107° |
| 2026-05-04 12:35 | 41.46553 | 44.36979 | 32892 ft | 509 kts | 107° |
| 2026-05-04 12:35 | 41.45213 | 44.46316 | 32902 ft | 509 kts | 107° |
| 2026-05-04 12:36 | 41.43891 | 44.55461 | 32901 ft | 509 kts | 107° |
| 2026-05-04 12:36 | 41.42533 | 44.64801 | 32900 ft | 509 kts | 107° |
| 2026-05-04 12:37 | 41.41172 | 44.74105 | 32900 ft | 508 kts | 107° |
| 2026-05-04 12:37 | 41.39827 | 44.83250 | 32898 ft | 508 kts | 107° |
| 2026-05-04 12:38 | 41.38454 | 44.92519 | 32890 ft | 512 kts | 107° |
| 2026-05-04 12:38 | 41.37049 | 45.01916 | 32885 ft | 513 kts | 107° |
| 2026-05-04 12:39 | 41.35298 | 45.11062 | 32883 ft | 507 kts | 114° |
| 2026-05-04 12:39 | 41.33025 | 45.19925 | 32859 ft | 505 kts | 116° |
| 2026-05-04 12:40 | 41.30682 | 45.28765 | 32873 ft | 509 kts | 115° |
| 2026-05-04 12:40 | 41.28371 | 45.37665 | 32861 ft | 509 kts | 115° |
| 2026-05-04 12:41 | 41.26079 | 45.46582 | 32852 ft | 510 kts | 115° |
| 2026-05-04 12:41 | 41.23782 | 45.55493 | 32857 ft | 511 kts | 115° |
| 2026-05-04 12:42 | 41.21468 | 45.64422 | 32856 ft | 511 kts | 115° |
| 2026-05-04 12:42 | 41.19120 | 45.73329 | 32857 ft | 511 kts | 115° |
| 2026-05-04 12:43 | 41.16797 | 45.82115 | 32828 ft | 510 kts | 115° |
| 2026-05-04 12:43 | 41.14459 | 45.90956 | 32851 ft | 513 kts | 115° |
| 2026-05-04 12:44 | 41.12078 | 45.99947 | 32849 ft | 513 kts | 115° |
| 2026-05-04 12:44 | 41.09720 | 46.08819 | 32846 ft | 512 kts | 115° |
| 2026-05-04 12:45 | 41.07340 | 46.17741 | 32848 ft | 513 kts | 115° |
| 2026-05-04 12:45 | 41.04968 | 46.26597 | 32851 ft | 513 kts | 115° |
| 2026-05-04 12:46 | 41.02579 | 46.35489 | 32848 ft | 513 kts | 115° |
| 2026-05-04 12:46 | 41.00175 | 46.44479 | 32822 ft | 514 kts | 115° |
| 2026-05-04 12:47 | 40.97790 | 46.53421 | 32854 ft | 514 kts | 115° |
| 2026-05-04 12:47 | 40.95406 | 46.62336 | 32857 ft | 514 kts | 115° |
| 2026-05-04 12:48 | 40.93016 | 46.71235 | 32855 ft | 514 kts | 115° |
| 2026-05-04 12:48 | 40.90907 | 46.80146 | 32850 ft | 519 kts | 105° |
| 2026-05-04 12:49 | 40.90528 | 46.89809 | 32859 ft | 530 kts | 87° |
| 2026-05-04 12:49 | 40.92211 | 46.99203 | 32862 ft | 536 kts | 73° |
| 2026-05-04 12:50 | 40.94686 | 47.08672 | 32868 ft | 538 kts | 75° |
| 2026-05-04 12:50 | 40.96712 | 47.18110 | 32871 ft | 537 kts | 78° |
| 2026-05-04 12:51 | 40.98195 | 47.26159 | 32870 ft | 537 kts | 79° |
| 2026-05-04 12:51 | 41.00171 | 47.37305 | 32869 ft | 538 kts | 79° |
| 2026-05-04 12:52 | 41.01896 | 47.46975 | 32864 ft | 539 kts | 79° |
| 2026-05-04 12:52 | 41.03619 | 47.56585 | 32863 ft | 539 kts | 79° |
| 2026-05-04 12:53 | 41.05343 | 47.66234 | 32846 ft | 539 kts | 79° |
| 2026-05-04 12:53 | 41.07094 | 47.76082 | 32860 ft | 538 kts | 79° |
| 2026-05-04 12:54 | 41.08763 | 47.85564 | 32854 ft | 537 kts | 79° |
| 2026-05-04 12:54 | 41.10185 | 47.93651 | 32843 ft | 537 kts | 78° |
| 2026-05-04 12:55 | 41.12383 | 48.03259 | 32836 ft | 537 kts | 71° |
| 2026-05-04 12:55 | 41.14993 | 48.12491 | 32841 ft | 533 kts | 70° |
| 2026-05-04 12:56 | 41.17606 | 48.21617 | 32854 ft | 533 kts | 70° |
| 2026-05-04 12:56 | 41.20174 | 48.30843 | 32847 ft | 533 kts | 71° |
| 2026-05-04 12:57 | 41.22720 | 48.40098 | 32836 ft | 533 kts | 71° |
| 2026-05-04 12:57 | 41.25229 | 48.49272 | 32850 ft | 535 kts | 71° |
| 2026-05-04 12:58 | 41.27774 | 48.58601 | 32867 ft | 535 kts | 71° |
| 2026-05-04 12:58 | 41.30287 | 48.67841 | 32879 ft | 538 kts | 71° |
| 2026-05-04 12:59 | 41.32856 | 48.77313 | 32877 ft | 538 kts | 71° |
| 2026-05-04 12:59 | 41.35389 | 48.86695 | 32886 ft | 538 kts | 72° |
| 2026-05-04 13:00 | 41.37848 | 48.95937 | 32888 ft | 540 kts | 72° |
| 2026-05-04 13:00 | 41.40387 | 49.05506 | 32885 ft | 541 kts | 72° |
| 2026-05-04 13:01 | 41.42876 | 49.14851 | 32879 ft | 541 kts | 72° |
| 2026-05-04 13:01 | 41.45422 | 49.24419 | 32874 ft | 540 kts | 72° |
| 2026-05-04 13:02 | 41.47885 | 49.33712 | 32870 ft | 540 kts | 72° |
| 2026-05-04 13:02 | 41.50379 | 49.43163 | 32871 ft | 540 kts | 72° |
| 2026-05-04 13:03 | 41.52884 | 49.52696 | 32860 ft | 541 kts | 72° |
| 2026-05-04 13:03 | 41.55353 | 49.62129 | 32856 ft | 541 kts | 72° |
| 2026-05-04 13:04 | 41.57829 | 49.71623 | 32856 ft | 541 kts | 72° |
| 2026-05-04 13:04 | 41.60314 | 49.81188 | 32855 ft | 541 kts | 72° |
| 2026-05-04 13:05 | 41.62764 | 49.90660 | 32857 ft | 541 kts | 72° |
| 2026-05-04 13:05 | 41.65195 | 50.00203 | 32863 ft | 541 kts | 72° |
| 2026-05-04 13:06 | 41.67620 | 50.09766 | 32857 ft | 541 kts | 72° |
| 2026-05-04 13:06 | 41.70034 | 50.19237 | 32864 ft | 539 kts | 72° |
| 2026-05-04 13:07 | 41.72430 | 50.28644 | 32865 ft | 539 kts | 72° |
| 2026-05-04 13:07 | 41.74880 | 50.38295 | 32868 ft | 539 kts | 72° |
| 2026-05-04 13:08 | 41.77253 | 50.47685 | 32861 ft | 538 kts | 72° |
| 2026-05-04 13:08 | 41.79659 | 50.57249 | 32873 ft | 538 kts | 72° |
| 2026-05-04 13:09 | 41.82008 | 50.66626 | 32870 ft | 538 kts | 72° |
| 2026-05-04 13:09 | 41.84402 | 50.76218 | 32873 ft | 538 kts | 72° |
| 2026-05-04 13:10 | 41.86788 | 50.85819 | 32878 ft | 536 kts | 72° |
| 2026-05-04 13:10 | 41.89139 | 50.95316 | 32872 ft | 536 kts | 72° |
| 2026-05-04 13:11 | 41.91444 | 51.04767 | 32877 ft | 536 kts | 73° |
| 2026-05-04 13:11 | 41.93752 | 51.14292 | 32864 ft | 536 kts | 73° |
| 2026-05-04 13:12 | 41.96073 | 51.23818 | 32869 ft | 537 kts | 72° |
| 2026-05-04 13:12 | 41.98398 | 51.33365 | 32866 ft | 537 kts | 72° |
| 2026-05-04 13:13 | 42.00764 | 51.42822 | 32874 ft | 535 kts | 68° |
| 2026-05-04 13:13 | 42.04312 | 51.51592 | 32879 ft | 534 kts | 56° |
| 2026-05-04 13:14 | 42.08423 | 51.59692 | 32882 ft | 534 kts | 54° |
| 2026-05-04 13:14 | 42.12611 | 51.68027 | 32881 ft | 532 kts | 56° |
| 2026-05-04 13:15 | 42.16706 | 51.76486 | 32879 ft | 532 kts | 56° |
| 2026-05-04 13:15 | 42.20681 | 51.84821 | 32878 ft | 532 kts | 57° |
| 2026-05-04 13:16 | 42.24675 | 51.93216 | 32879 ft | 530 kts | 57° |
| 2026-05-04 13:16 | 42.28640 | 52.01558 | 32885 ft | 530 kts | 57° |
| 2026-05-04 13:17 | 42.32628 | 52.09966 | 32869 ft | 529 kts | 57° |
| 2026-05-04 13:17 | 42.36531 | 52.18218 | 32875 ft | 529 kts | 57° |
| 2026-05-04 13:18 | 42.40539 | 52.26716 | 32863 ft | 529 kts | 57° |
| 2026-05-04 13:18 | 42.44482 | 52.35100 | 32863 ft | 529 kts | 57° |
| 2026-05-04 13:19 | 42.48377 | 52.43458 | 32858 ft | 526 kts | 58° |
| 2026-05-04 13:19 | 42.52288 | 52.51889 | 32857 ft | 525 kts | 58° |
| 2026-05-04 13:20 | 42.56110 | 52.60105 | 32865 ft | 524 kts | 57° |
| 2026-05-04 13:20 | 42.60048 | 52.68570 | 32871 ft | 523 kts | 58° |
| 2026-05-04 13:21 | 42.63922 | 52.76922 | 32871 ft | 522 kts | 58° |
| 2026-05-04 13:21 | 42.67770 | 52.85243 | 32867 ft | 522 kts | 58° |
| 2026-05-04 13:22 | 42.71635 | 52.93624 | 32863 ft | 521 kts | 58° |
| 2026-05-04 13:22 | 42.75472 | 53.01970 | 32859 ft | 519 kts | 58° |
| 2026-05-04 13:23 | 42.79295 | 53.10307 | 32860 ft | 519 kts | 58° |
| 2026-05-04 13:23 | 42.83107 | 53.18644 | 32843 ft | 519 kts | 58° |
| 2026-05-04 13:24 | 42.86914 | 53.26994 | 32842 ft | 517 kts | 58° |
| 2026-05-04 13:24 | 42.90635 | 53.35194 | 32842 ft | 517 kts | 58° |
| 2026-05-04 13:25 | 42.96332 | 53.47882 | 32836 ft | 516 kts | 59° |
| 2026-05-04 13:25 | 42.99988 | 53.56103 | 32836 ft | 515 kts | 62° |
| 2026-05-04 13:26 | 43.02584 | 53.65290 | 32834 ft | 512 kts | 79° |
| 2026-05-04 13:26 | 43.03267 | 53.74776 | 32833 ft | 509 kts | 91° |
| 2026-05-04 13:27 | 43.03482 | 53.84577 | 32829 ft | 508 kts | 89° |
| 2026-05-04 13:27 | 43.03949 | 53.94157 | 32829 ft | 509 kts | 87° |
| 2026-05-04 13:28 | 43.04576 | 54.03791 | 32821 ft | 509 kts | 86° |
| 2026-05-04 13:28 | 43.05219 | 54.13354 | 32831 ft | 510 kts | 86° |
| 2026-05-04 13:29 | 43.05856 | 54.23102 | 32829 ft | 508 kts | 86° |
| 2026-05-04 13:29 | 43.06467 | 54.32697 | 32824 ft | 507 kts | 86° |
| 2026-05-04 13:30 | 43.07058 | 54.42146 | 32824 ft | 507 kts | 86° |
| 2026-05-04 13:30 | 43.07653 | 54.51785 | 32830 ft | 507 kts | 87° |
| 2026-05-04 13:31 | 43.08243 | 54.61466 | 32825 ft | 506 kts | 86° |
| 2026-05-04 13:31 | 43.08821 | 54.71062 | 32830 ft | 506 kts | 87° |
| 2026-05-04 13:32 | 43.09367 | 54.80603 | 32817 ft | 506 kts | 87° |
| 2026-05-04 13:32 | 43.09897 | 54.90274 | 32828 ft | 507 kts | 87° |
| 2026-05-04 13:33 | 43.10439 | 54.99903 | 32830 ft | 507 kts | 86° |
| 2026-05-04 13:33 | 43.10983 | 55.09518 | 32829 ft | 507 kts | 86° |
| 2026-05-04 13:34 | 43.11524 | 55.19166 | 32832 ft | 507 kts | 86° |
| 2026-05-04 13:34 | 43.12050 | 55.28724 | 32832 ft | 507 kts | 87° |
| 2026-05-04 13:35 | 43.12831 | 55.43194 | 32832 ft | 507 kts | 87° |
| 2026-05-04 13:36 | 43.13333 | 55.52698 | 32832 ft | 507 kts | 87° |
| 2026-05-04 13:36 | 43.13841 | 55.62460 | 32832 ft | 507 kts | 87° |
| 2026-05-04 13:37 | 43.14326 | 55.71933 | 32836 ft | 507 kts | 87° |
| 2026-05-04 13:37 | 43.14819 | 55.81712 | 32836 ft | 506 kts | 87° |
| 2026-05-04 13:38 | 43.15281 | 55.91196 | 32838 ft | 505 kts | 87° |
| 2026-05-04 13:38 | 43.15985 | 56.00817 | 32843 ft | 506 kts | 79° |
| 2026-05-04 13:39 | 43.17792 | 56.10141 | 32851 ft | 507 kts | 73° |
| 2026-05-04 13:39 | 43.19892 | 56.19421 | 32851 ft | 508 kts | 73° |
| 2026-05-04 13:40 | 43.21894 | 56.28605 | 32854 ft | 509 kts | 74° |
| 2026-05-04 13:40 | 43.23863 | 56.37978 | 32865 ft | 509 kts | 74° |
| 2026-05-04 13:41 | 43.25776 | 56.47207 | 32865 ft | 509 kts | 74° |
| 2026-05-04 13:41 | 43.27735 | 56.56690 | 32868 ft | 510 kts | 74° |
| 2026-05-04 13:42 | 43.30630 | 56.70764 | 32867 ft | 510 kts | 74° |
| 2026-05-04 13:42 | 43.32519 | 56.80002 | 32875 ft | 510 kts | 74° |
| 2026-05-04 13:43 | 43.34449 | 56.89470 | 32875 ft | 511 kts | 74° |
| 2026-05-04 13:43 | 43.36035 | 56.97292 | 32878 ft | 511 kts | 74° |
| 2026-05-04 13:44 | 43.38223 | 57.08146 | 32881 ft | 511 kts | 75° |
| 2026-05-04 13:44 | 43.40075 | 57.17560 | 32882 ft | 511 kts | 74° |
| 2026-05-04 13:45 | 43.41652 | 57.25552 | 32884 ft | 512 kts | 74° |
| 2026-05-04 13:45 | 43.43517 | 57.34949 | 32886 ft | 512 kts | 74° |
| 2026-05-04 13:46 | 43.45405 | 57.44469 | 32889 ft | 512 kts | 75° |
| 2026-05-04 13:46 | 43.47250 | 57.53822 | 32890 ft | 512 kts | 74° |
| 2026-05-04 13:47 | 43.49125 | 57.63367 | 32892 ft | 512 kts | 74° |
| 2026-05-04 13:47 | 43.50976 | 57.72854 | 32903 ft | 512 kts | 74° |
| 2026-05-04 13:48 | 43.52813 | 57.82306 | 32903 ft | 512 kts | 75° |
| 2026-05-04 13:48 | 43.54650 | 57.91809 | 32909 ft | 513 kts | 74° |
| 2026-05-04 13:49 | 43.56462 | 58.01223 | 32913 ft | 513 kts | 74° |
| 2026-05-04 13:49 | 43.58275 | 58.10688 | 32915 ft | 513 kts | 75° |
| 2026-05-04 13:50 | 43.60111 | 58.20367 | 32920 ft | 513 kts | 75° |
| 2026-05-04 13:50 | 43.61884 | 58.29923 | 32922 ft | 514 kts | 75° |
| 2026-05-04 13:51 | 43.63659 | 58.39489 | 32919 ft | 514 kts | 75° |
| 2026-05-04 13:51 | 43.65390 | 58.48892 | 32922 ft | 513 kts | 75° |
| 2026-05-04 13:52 | 43.68036 | 58.63315 | 32924 ft | 513 kts | 75° |
| 2026-05-04 13:53 | 43.69789 | 58.72930 | 32924 ft | 513 kts | 75° |
| 2026-05-04 13:53 | 43.71523 | 58.82493 | 32924 ft | 513 kts | 75° |
| 2026-05-04 13:54 | 43.74078 | 58.96669 | 32927 ft | 513 kts | 76° |
| 2026-05-04 13:55 | 43.76656 | 59.11024 | 32937 ft | 513 kts | 75° |
| 2026-05-04 13:55 | 43.79283 | 59.25456 | 32935 ft | 513 kts | 76° |
| 2026-05-04 13:56 | 43.81025 | 59.35026 | 32938 ft | 512 kts | 76° |
| 2026-05-04 13:57 | 43.83597 | 59.49266 | 32946 ft | 511 kts | 76° |
| 2026-05-04 13:58 | 43.87025 | 59.68437 | 32944 ft | 510 kts | 76° |
| 2026-05-04 13:58 | 43.89475 | 59.82714 | 32947 ft | 510 kts | 77° |
| 2026-05-04 13:59 | 43.91120 | 59.92359 | 32950 ft | 510 kts | 77° |
| 2026-05-04 14:00 | 43.93565 | 60.06680 | 32948 ft | 508 kts | 77° |
| 2026-05-04 14:00 | 43.95973 | 60.20920 | 32951 ft | 508 kts | 77° |
| 2026-05-04 14:01 | 43.97579 | 60.30481 | 32954 ft | 508 kts | 77° |
| 2026-05-04 14:02 | 43.99963 | 60.44776 | 32952 ft | 507 kts | 77° |
| 2026-05-04 14:02 | 44.01528 | 60.54215 | 32952 ft | 507 kts | 77° |
| 2026-05-04 14:03 | 44.03130 | 60.63928 | 32955 ft | 507 kts | 78° |
| 2026-05-04 14:03 | 44.04688 | 60.73439 | 32946 ft | 508 kts | 78° |
| 2026-05-04 14:04 | 44.07001 | 60.87828 | 32951 ft | 508 kts | 78° |
| 2026-05-04 14:04 | 44.08520 | 60.97428 | 32949 ft | 508 kts | 78° |
| 2026-05-04 14:05 | 44.10809 | 61.11750 | 32953 ft | 508 kts | 78° |
| 2026-05-04 14:06 | 44.12339 | 61.21345 | 32953 ft | 508 kts | 78° |
| 2026-05-04 14:06 | 44.13861 | 61.30991 | 32952 ft | 507 kts | 79° |
| 2026-05-04 14:07 | 44.14728 | 61.40672 | 32958 ft | 506 kts | 87° |
| 2026-05-04 14:07 | 44.15094 | 61.50465 | 32957 ft | 503 kts | 88° |
| 2026-05-04 14:08 | 44.15437 | 61.60189 | 32958 ft | 503 kts | 88° |
| 2026-05-04 14:08 | 44.15825 | 61.69906 | 32950 ft | 503 kts | 88° |
| 2026-05-04 14:09 | 44.16436 | 61.84401 | 32962 ft | 501 kts | 87° |
| 2026-05-04 14:10 | 44.17031 | 61.98804 | 32960 ft | 501 kts | 88° |
| 2026-05-04 14:10 | 44.17424 | 62.08620 | 32963 ft | 501 kts | 88° |
| 2026-05-04 14:11 | 44.17804 | 62.18308 | 32963 ft | 501 kts | 88° |
| 2026-05-04 14:11 | 44.18345 | 62.32776 | 32963 ft | 498 kts | 88° |
| 2026-05-04 14:12 | 44.18660 | 62.42260 | 32963 ft | 498 kts | 88° |
| 2026-05-04 14:13 | 44.19150 | 62.56821 | 32963 ft | 498 kts | 88° |
| 2026-05-04 14:13 | 44.19473 | 62.66454 | 32962 ft | 497 kts | 88° |
| 2026-05-04 14:14 | 44.19784 | 62.75965 | 32963 ft | 497 kts | 88° |
| 2026-05-04 14:14 | 44.20243 | 62.90505 | 32963 ft | 497 kts | 88° |
| 2026-05-04 14:15 | 44.20821 | 63.09744 | 32960 ft | 496 kts | 89° |
| 2026-05-04 14:16 | 44.21123 | 63.24105 | 32960 ft | 496 kts | 90° |
| 2026-05-04 14:17 | 44.21275 | 63.38525 | 32961 ft | 496 kts | 90° |
| 2026-05-04 14:18 | 44.21440 | 63.52949 | 32954 ft | 496 kts | 90° |
| 2026-05-04 14:19 | 44.21641 | 63.72094 | 32961 ft | 496 kts | 90° |
| 2026-05-04 14:19 | 44.21730 | 63.81823 | 32961 ft | 496 kts | 90° |
| 2026-05-04 14:20 | 44.21810 | 63.91451 | 32959 ft | 497 kts | 90° |
| 2026-05-04 14:20 | 44.21882 | 64.01080 | 32962 ft | 497 kts | 90° |
| 2026-05-04 14:21 | 44.21981 | 64.15544 | 32962 ft | 497 kts | 90° |
| 2026-05-04 14:21 | 44.22268 | 64.25169 | 32966 ft | 497 kts | 87° |
| 2026-05-04 14:22 | 44.22720 | 64.34791 | 32961 ft | 498 kts | 86° |
| 2026-05-04 14:22 | 44.23179 | 64.44352 | 32961 ft | 498 kts | 86° |
| 2026-05-04 14:23 | 44.23832 | 64.58794 | 32964 ft | 498 kts | 87° |
| 2026-05-04 14:24 | 44.24245 | 64.68314 | 32962 ft | 497 kts | 86° |
| 2026-05-04 14:24 | 44.24660 | 64.78033 | 32964 ft | 497 kts | 86° |
| 2026-05-04 14:25 | 44.25033 | 64.87659 | 32963 ft | 497 kts | 87° |
| 2026-05-04 14:25 | 44.25558 | 65.02090 | 32964 ft | 497 kts | 87° |
| 2026-05-04 14:26 | 44.25909 | 65.11691 | 32964 ft | 495 kts | 87° |
| 2026-05-04 14:26 | 44.26255 | 65.21269 | 32964 ft | 494 kts | 87° |
| 2026-05-04 14:27 | 44.26594 | 65.30861 | 33128 ft | 495 kts | 87° |
| 2026-05-04 14:27 | 44.26760 | 65.35660 | 33384 ft | 495 kts | 87° |
| 2026-05-04 14:27 | 44.26921 | 65.40386 | 33615 ft | 494 kts | 87° |
| 2026-05-04 14:28 | 44.27081 | 65.45114 | 33858 ft | 494 kts | 86° |
| 2026-05-04 14:28 | 44.27242 | 65.49961 | 34061 ft | 494 kts | 86° |
| 2026-05-04 14:28 | 44.27397 | 65.54684 | 34233 ft | 494 kts | 86° |
| 2026-05-04 14:28 | 44.27553 | 65.59482 | 34412 ft | 494 kts | 86° |
| 2026-05-04 14:29 | 44.27859 | 65.69060 | 34757 ft | 494 kts | 86° |
| 2026-05-04 14:29 | 44.28155 | 65.78622 | 34956 ft | 494 kts | 86° |
| 2026-05-04 14:30 | 44.28444 | 65.88198 | 34966 ft | 494 kts | 86° |
| 2026-05-04 14:31 | 44.28838 | 66.02574 | 34966 ft | 494 kts | 86° |
| 2026-05-04 14:32 | 44.29281 | 66.20120 | 34973 ft | 494 kts | 86° |
| 2026-05-04 14:32 | 44.29576 | 66.31309 | 34978 ft | 494 kts | 86° |
| 2026-05-04 14:33 | 44.29781 | 66.39263 | 34978 ft | 494 kts | 86° |
| 2026-05-04 14:33 | 44.29935 | 66.48856 | 34980 ft | 494 kts | 88° |
| 2026-05-04 14:34 | 44.30002 | 66.58430 | 34985 ft | 493 kts | 88° |
| 2026-05-04 14:34 | 44.30063 | 66.68011 | 34983 ft | 493 kts | 88° |
| 2026-05-04 14:35 | 44.30127 | 66.77574 | 34991 ft | 493 kts | 88° |
| 2026-05-04 14:35 | 44.30187 | 66.87143 | 34990 ft | 493 kts | 88° |
| 2026-05-04 14:36 | 44.30239 | 66.96716 | 34991 ft | 493 kts | 88° |
| 2026-05-04 14:36 | 44.30283 | 67.06294 | 34993 ft | 492 kts | 88° |
| 2026-05-04 14:37 | 44.30318 | 67.15805 | 34994 ft | 492 kts | 88° |
| 2026-05-04 14:37 | 44.30346 | 67.25405 | 35004 ft | 492 kts | 88° |
| 2026-05-04 14:38 | 44.30365 | 67.34928 | 35010 ft | 492 kts | 88° |
| 2026-05-04 14:38 | 44.30376 | 67.44385 | 35015 ft | 492 kts | 88° |
| 2026-05-04 14:39 | 44.30450 | 67.54023 | 35021 ft | 489 kts | 85° |
| 2026-05-04 14:39 | 44.30868 | 67.63303 | 35020 ft | 487 kts | 83° |
| 2026-05-04 14:40 | 44.31683 | 67.77559 | 35023 ft | 487 kts | 83° |
| 2026-05-04 14:40 | 44.32189 | 67.86875 | 35029 ft | 486 kts | 83° |
| 2026-05-04 14:41 | 44.32682 | 67.96333 | 35028 ft | 485 kts | 84° |
| 2026-05-04 14:42 | 44.33638 | 68.15206 | 35035 ft | 485 kts | 84° |
| 2026-05-04 14:42 | 44.34094 | 68.24414 | 35036 ft | 484 kts | 84° |
| 2026-05-04 14:43 | 44.34548 | 68.33752 | 35024 ft | 484 kts | 84° |
| 2026-05-04 14:43 | 44.35004 | 68.43275 | 35031 ft | 484 kts | 84° |
| 2026-05-04 14:44 | 44.35442 | 68.52594 | 35028 ft | 483 kts | 84° |
| 2026-05-04 14:44 | 44.35876 | 68.61978 | 35017 ft | 483 kts | 84° |
| 2026-05-04 14:45 | 44.36282 | 68.71341 | 35025 ft | 483 kts | 84° |
| 2026-05-04 14:45 | 44.36663 | 68.80709 | 35013 ft | 482 kts | 84° |
| 2026-05-04 14:46 | 44.37033 | 68.90037 | 35020 ft | 482 kts | 86° |
| 2026-05-04 14:46 | 44.36838 | 68.99382 | 35025 ft | 484 kts | 91° |
| 2026-05-04 14:47 | 44.36335 | 69.08758 | 35019 ft | 483 kts | 92° |
| 2026-05-04 14:47 | 44.35836 | 69.18021 | 35017 ft | 483 kts | 91° |
| 2026-05-04 14:48 | 44.35354 | 69.27553 | 35020 ft | 483 kts | 91° |
| 2026-05-04 14:48 | 44.34887 | 69.36912 | 35020 ft | 483 kts | 91° |
| 2026-05-04 14:49 | 44.34420 | 69.46121 | 35020 ft | 482 kts | 91° |
| 2026-05-04 14:49 | 44.33933 | 69.55559 | 35018 ft | 482 kts | 91° |
| 2026-05-04 14:50 | 44.33450 | 69.64774 | 35018 ft | 482 kts | 92° |
| 2026-05-04 14:50 | 44.32949 | 69.74175 | 35016 ft | 481 kts | 92° |
| 2026-05-04 14:51 | 44.32447 | 69.83454 | 35022 ft | 481 kts | 92° |
| 2026-05-04 14:51 | 44.31931 | 69.92833 | 35019 ft | 481 kts | 92° |
| 2026-05-04 14:52 | 44.31411 | 70.02150 | 35021 ft | 481 kts | 92° |
| 2026-05-04 14:52 | 44.30856 | 70.11520 | 35024 ft | 482 kts | 93° |
| 2026-05-04 14:53 | 44.30288 | 70.20808 | 35023 ft | 481 kts | 93° |
| 2026-05-04 14:53 | 44.29735 | 70.30124 | 35028 ft | 483 kts | 93° |
| 2026-05-04 14:54 | 44.29177 | 70.39358 | 35042 ft | 483 kts | 93° |
| 2026-05-04 14:54 | 44.28602 | 70.48767 | 35039 ft | 483 kts | 93° |
| 2026-05-04 14:55 | 44.28021 | 70.58056 | 35041 ft | 483 kts | 92° |
| 2026-05-04 14:55 | 44.27427 | 70.67536 | 35045 ft | 482 kts | 93° |
| 2026-05-04 14:56 | 44.26844 | 70.76805 | 35053 ft | 484 kts | 94° |
| 2026-05-04 14:56 | 44.26243 | 70.86226 | 35054 ft | 484 kts | 94° |
| 2026-05-04 14:57 | 44.25644 | 70.95384 | 35053 ft | 484 kts | 93° |
| 2026-05-04 14:57 | 44.25025 | 71.04815 | 35053 ft | 484 kts | 94° |
| 2026-05-04 14:58 | 44.24398 | 71.14232 | 35057 ft | 485 kts | 94° |
| 2026-05-04 14:58 | 44.23765 | 71.23551 | 35059 ft | 487 kts | 94° |
| 2026-05-04 14:59 | 44.23122 | 71.32942 | 35057 ft | 487 kts | 94° |
| 2026-05-04 15:00 | 44.22154 | 71.46978 | 35068 ft | 489 kts | 95° |
| 2026-05-04 15:00 | 44.21491 | 71.56548 | 35070 ft | 491 kts | 95° |
| 2026-05-04 15:01 | 44.20516 | 71.70760 | 35065 ft | 491 kts | 95° |
| 2026-05-04 15:01 | 44.19859 | 71.80265 | 35068 ft | 491 kts | 95° |
| 2026-05-04 15:02 | 44.19199 | 71.89707 | 35069 ft | 493 kts | 96° |
| 2026-05-04 15:02 | 44.18534 | 71.99113 | 35071 ft | 494 kts | 96° |
| 2026-05-04 15:03 | 44.17846 | 72.08702 | 35076 ft | 494 kts | 96° |
| 2026-05-04 15:03 | 44.17165 | 72.18114 | 35075 ft | 494 kts | 96° |
| 2026-05-04 15:04 | 44.16460 | 72.27756 | 35077 ft | 494 kts | 96° |
| 2026-05-04 15:04 | 44.15753 | 72.37290 | 35082 ft | 497 kts | 97° |
| 2026-05-04 15:05 | 44.15042 | 72.46766 | 35084 ft | 497 kts | 97° |
| 2026-05-04 15:05 | 44.14301 | 72.56373 | 35084 ft | 497 kts | 97° |
| 2026-05-04 15:06 | 44.13521 | 72.66022 | 35081 ft | 497 kts | 97° |
| 2026-05-04 15:07 | 44.12383 | 72.80409 | 35086 ft | 499 kts | 97° |
| 2026-05-04 15:07 | 44.11629 | 72.89982 | 35083 ft | 499 kts | 97° |
| 2026-05-04 15:08 | 44.10862 | 72.99533 | 35083 ft | 499 kts | 97° |
| 2026-05-04 15:08 | 44.10076 | 73.09027 | 35080 ft | 499 kts | 98° |
| 2026-05-04 15:09 | 44.09270 | 73.18732 | 35083 ft | 498 kts | 98° |
| 2026-05-04 15:09 | 44.08468 | 73.28338 | 35081 ft | 498 kts | 98° |
| 2026-05-04 15:10 | 44.07264 | 73.42602 | 35084 ft | 498 kts | 98° |
| 2026-05-04 15:11 | 44.06032 | 73.56988 | 35081 ft | 499 kts | 98° |
| 2026-05-04 15:11 | 44.05198 | 73.66598 | 35079 ft | 499 kts | 98° |
| 2026-05-04 15:12 | 44.04363 | 73.76134 | 35087 ft | 499 kts | 98° |
| 2026-05-04 15:12 | 44.03513 | 73.85742 | 35089 ft | 499 kts | 98° |
| 2026-05-04 15:13 | 44.02674 | 73.95117 | 35089 ft | 499 kts | 99° |
| 2026-05-04 15:13 | 44.01799 | 74.04814 | 35093 ft | 498 kts | 99° |
| 2026-05-04 15:14 | 44.00922 | 74.14291 | 35097 ft | 498 kts | 99° |
| 2026-05-04 15:14 | 44.00011 | 74.23793 | 35099 ft | 498 kts | 99° |
| 2026-05-04 15:15 | 43.99117 | 74.33277 | 35102 ft | 498 kts | 99° |
| 2026-05-04 15:15 | 43.98222 | 74.42818 | 35103 ft | 499 kts | 99° |
| 2026-05-04 15:16 | 43.96910 | 74.57073 | 35101 ft | 499 kts | 99° |
| 2026-05-04 15:17 | 43.95656 | 74.71477 | 35097 ft | 496 kts | 99° |
| 2026-05-04 15:17 | 43.94406 | 74.85707 | 35097 ft | 495 kts | 99° |
| 2026-05-04 15:18 | 43.93561 | 74.95183 | 35100 ft | 496 kts | 99° |
| 2026-05-04 15:19 | 43.92271 | 75.09474 | 35099 ft | 496 kts | 99° |
| 2026-05-04 15:19 | 43.90968 | 75.23712 | 35099 ft | 496 kts | 99° |
| 2026-05-04 15:20 | 43.90241 | 75.31570 | 35101 ft | 496 kts | 99° |
| 2026-05-04 15:20 | 43.89363 | 75.40975 | 35097 ft | 496 kts | 99° |
| 2026-05-04 15:21 | 43.88472 | 75.50436 | 35100 ft | 496 kts | 99° |
| 2026-05-04 15:22 | 43.86962 | 75.66163 | 35095 ft | 495 kts | 99° |
| 2026-05-04 15:22 | 43.85682 | 75.78917 | 35101 ft | 495 kts | 99° |
| 2026-05-04 15:23 | 43.84759 | 75.88265 | 35095 ft | 496 kts | 99° |
| 2026-05-04 15:23 | 43.83821 | 75.97791 | 35092 ft | 496 kts | 99° |
| 2026-05-04 15:24 | 43.81670 | 76.16600 | 35095 ft | 496 kts | 101° |
| 2026-05-04 15:25 | 43.80546 | 76.26031 | 35091 ft | 497 kts | 101° |
| 2026-05-04 15:26 | 43.78858 | 76.40217 | 35088 ft | 495 kts | 101° |
| 2026-05-04 15:26 | 43.77164 | 76.54322 | 35088 ft | 496 kts | 101° |
| 2026-05-04 15:27 | 43.75464 | 76.68318 | 35090 ft | 496 kts | 101° |
| 2026-05-04 15:28 | 43.73744 | 76.82333 | 35079 ft | 496 kts | 101° |
| 2026-05-04 15:29 | 43.71990 | 76.96467 | 35075 ft | 496 kts | 101° |
| 2026-05-04 15:30 | 43.67787 | 77.29266 | 35071 ft | 496 kts | 102° |
| 2026-05-04 15:31 | 43.65960 | 77.43402 | 35078 ft | 496 kts | 102° |
| 2026-05-04 15:32 | 43.62909 | 77.66839 | 35072 ft | 497 kts | 102° |
| 2026-05-04 15:34 | 43.59803 | 77.90290 | 35062 ft | 498 kts | 102° |
| 2026-05-04 15:34 | 43.57927 | 78.04280 | 35064 ft | 496 kts | 101° |
| 2026-05-04 15:35 | 43.57176 | 78.18626 | 35051 ft | 498 kts | 92° |
| 2026-05-04 15:36 | 43.57056 | 78.32846 | 35043 ft | 498 kts | 92° |
| 2026-05-04 15:36 | 43.56910 | 78.42284 | 35033 ft | 497 kts | 92° |
| 2026-05-04 15:37 | 43.56727 | 78.51871 | 35043 ft | 497 kts | 92° |
| 2026-05-04 15:37 | 43.56535 | 78.61368 | 35050 ft | 497 kts | 93° |
| 2026-05-04 15:38 | 43.56335 | 78.70951 | 35032 ft | 497 kts | 93° |
| 2026-05-04 15:38 | 43.56122 | 78.80497 | 35034 ft | 499 kts | 92° |
| 2026-05-04 15:39 | 43.55911 | 78.90141 | 35031 ft | 500 kts | 93° |
| 2026-05-04 15:40 | 43.55578 | 79.04495 | 35027 ft | 499 kts | 93° |
| 2026-05-04 15:40 | 43.55346 | 79.14034 | 35018 ft | 502 kts | 93° |
| 2026-05-04 15:41 | 43.55084 | 79.23724 | 35031 ft | 504 kts | 93° |
| 2026-05-04 15:41 | 43.54794 | 79.33266 | 35033 ft | 504 kts | 94° |
| 2026-05-04 15:42 | 43.54515 | 79.42822 | 35058 ft | 504 kts | 94° |
| 2026-05-04 15:42 | 43.54238 | 79.52649 | 35039 ft | 501 kts | 93° |
| 2026-05-04 15:43 | 43.53972 | 79.62097 | 35050 ft | 499 kts | 93° |
| 2026-05-04 15:43 | 43.53691 | 79.71665 | 35042 ft | 499 kts | 93° |
| 2026-05-04 15:44 | 43.53401 | 79.81113 | 35066 ft | 499 kts | 94° |
| 2026-05-04 15:44 | 43.53082 | 79.90739 | 35070 ft | 499 kts | 94° |
| 2026-05-04 15:45 | 43.52766 | 80.00302 | 35065 ft | 499 kts | 94° |
| 2026-05-04 15:45 | 43.52449 | 80.09887 | 35065 ft | 499 kts | 94° |
| 2026-05-04 15:46 | 43.52128 | 80.19432 | 35077 ft | 499 kts | 94° |
| 2026-05-04 15:46 | 43.51799 | 80.28984 | 35070 ft | 499 kts | 94° |
| 2026-05-04 15:47 | 43.51461 | 80.38537 | 35077 ft | 499 kts | 94° |
| 2026-05-04 15:47 | 43.51115 | 80.48081 | 35080 ft | 499 kts | 94° |
| 2026-05-04 15:48 | 43.50760 | 80.57643 | 35090 ft | 500 kts | 94° |
| 2026-05-04 15:48 | 43.50217 | 80.72000 | 35082 ft | 501 kts | 94° |
| 2026-05-04 15:49 | 43.49983 | 80.81596 | 35077 ft | 501 kts | 92° |
| 2026-05-04 15:49 | 43.49847 | 80.91193 | 35075 ft | 501 kts | 92° |
| 2026-05-04 15:50 | 43.49717 | 81.00827 | 35072 ft | 503 kts | 92° |
| 2026-05-04 15:50 | 43.49571 | 81.10462 | 35067 ft | 503 kts | 92° |
| 2026-05-04 15:51 | 43.49413 | 81.20030 | 35069 ft | 503 kts | 92° |
| 2026-05-04 15:51 | 43.49245 | 81.29665 | 35073 ft | 503 kts | 92° |
| 2026-05-04 15:52 | 43.49069 | 81.39288 | 35070 ft | 502 kts | 93° |
| 2026-05-04 15:52 | 43.48886 | 81.48895 | 35070 ft | 502 kts | 93° |
| 2026-05-04 15:53 | 43.48695 | 81.58504 | 35049 ft | 502 kts | 93° |
| 2026-05-04 15:53 | 43.48492 | 81.68041 | 35054 ft | 501 kts | 93° |
| 2026-05-04 15:54 | 43.48248 | 81.77542 | 35138 ft | 500 kts | 93° |
| 2026-05-04 15:54 | 43.47998 | 81.87261 | 35148 ft | 501 kts | 93° |
| 2026-05-04 15:55 | 43.47761 | 81.96741 | 35146 ft | 501 kts | 93° |
| 2026-05-04 15:55 | 43.47516 | 82.06421 | 35149 ft | 501 kts | 93° |
| 2026-05-04 15:56 | 43.47270 | 82.15842 | 35149 ft | 500 kts | 94° |
| 2026-05-04 15:56 | 43.47011 | 82.25406 | 35147 ft | 500 kts | 94° |
| 2026-05-04 15:57 | 43.46740 | 82.35098 | 35149 ft | 500 kts | 94° |
| 2026-05-04 15:57 | 43.46468 | 82.44579 | 35143 ft | 501 kts | 94° |
| 2026-05-04 15:58 | 43.46182 | 82.54221 | 35145 ft | 501 kts | 94° |
| 2026-05-04 15:58 | 43.45892 | 82.63745 | 35144 ft | 501 kts | 94° |
| 2026-05-04 15:59 | 43.45593 | 82.73328 | 35147 ft | 501 kts | 94° |
| 2026-05-04 15:59 | 43.45281 | 82.82912 | 35147 ft | 503 kts | 94° |
| 2026-05-04 16:00 | 43.44925 | 82.92545 | 35158 ft | 504 kts | 94° |
| 2026-05-04 16:00 | 43.44577 | 83.02186 | 35161 ft | 504 kts | 94° |
| 2026-05-04 16:01 | 43.44239 | 83.11827 | 35159 ft | 504 kts | 94° |
| 2026-05-04 16:01 | 43.43898 | 83.21482 | 35159 ft | 506 kts | 94° |
| 2026-05-04 16:02 | 43.43547 | 83.31176 | 35139 ft | 507 kts | 94° |
| 2026-05-04 16:03 | 43.42653 | 83.45674 | 35266 ft | 507 kts | 98° |
| 2026-05-04 16:03 | 43.42236 | 83.50482 | 35439 ft | 507 kts | 98° |
| 2026-05-04 16:03 | 43.41811 | 83.55309 | 35618 ft | 508 kts | 99° |
| 2026-05-04 16:03 | 43.41390 | 83.60136 | 35743 ft | 509 kts | 98° |
| 2026-05-04 16:04 | 43.40974 | 83.64967 | 35896 ft | 510 kts | 98° |
| 2026-05-04 16:04 | 43.40160 | 83.74534 | 36226 ft | 510 kts | 98° |
| 2026-05-04 16:04 | 43.39744 | 83.79434 | 36387 ft | 510 kts | 99° |
| 2026-05-04 16:05 | 43.39330 | 83.84271 | 36539 ft | 510 kts | 99° |
| 2026-05-04 16:05 | 43.38983 | 83.89128 | 36683 ft | 511 kts | 95° |
| 2026-05-04 16:05 | 43.38749 | 83.98921 | 37019 ft | 512 kts | 93° |
| 2026-05-04 16:06 | 43.38676 | 84.03811 | 37105 ft | 512 kts | 93° |
| 2026-05-04 16:07 | 43.38128 | 84.23451 | 37137 ft | 515 kts | 95° |
| 2026-05-04 16:08 | 43.37433 | 84.43034 | 37133 ft | 518 kts | 95° |
| 2026-05-04 16:09 | 43.36523 | 84.67767 | 37119 ft | 518 kts | 95° |
| 2026-05-04 16:10 | 43.35748 | 84.87630 | 37143 ft | 518 kts | 95° |
| 2026-05-04 16:11 | 43.34987 | 85.05765 | 37143 ft | 519 kts | 96° |
| 2026-05-04 16:12 | 43.33691 | 85.35353 | 37155 ft | 519 kts | 96° |
| 2026-05-04 16:13 | 43.32800 | 85.55254 | 37150 ft | 521 kts | 96° |
| 2026-05-04 16:14 | 43.31877 | 85.75097 | 37160 ft | 521 kts | 96° |
| 2026-05-04 16:16 | 43.30683 | 85.99851 | 37179 ft | 523 kts | 96° |
| 2026-05-04 16:17 | 43.29364 | 86.24834 | 37156 ft | 523 kts | 97° |
| 2026-05-04 16:18 | 43.28306 | 86.44623 | 37165 ft | 524 kts | 97° |
| 2026-05-04 16:19 | 43.26942 | 86.69620 | 37168 ft | 524 kts | 97° |
| 2026-05-04 16:20 | 43.25534 | 86.94417 | 37148 ft | 524 kts | 97° |
| 2026-05-04 16:22 | 43.24057 | 87.19444 | 37123 ft | 525 kts | 97° |
| 2026-05-04 16:23 | 43.22142 | 87.49441 | 37066 ft | 528 kts | 97° |
| 2026-05-04 16:25 | 43.20218 | 87.79554 | 36986 ft | 529 kts | 97° |
| 2026-05-04 16:26 | 43.17863 | 88.14719 | 36917 ft | 530 kts | 98° |
| 2026-05-04 16:28 | 43.16111 | 88.39746 | 36844 ft | 531 kts | 98° |
| 2026-05-04 16:29 | 43.13494 | 88.75049 | 36810 ft | 533 kts | 98° |
| 2026-05-04 16:31 | 43.11600 | 89.00294 | 36799 ft | 534 kts | 98° |
| 2026-05-04 16:32 | 43.09255 | 89.30530 | 36814 ft | 534 kts | 99° |
| 2026-05-04 16:33 | 43.07646 | 89.50683 | 36825 ft | 535 kts | 99° |
| 2026-05-04 16:34 | 43.06368 | 89.65746 | 36834 ft | 535 kts | 99° |
| 2026-05-04 16:35 | 43.03825 | 89.96068 | 36841 ft | 535 kts | 99° |
| 2026-05-04 16:36 | 43.02520 | 90.11339 | 36786 ft | 538 kts | 99° |
| 2026-05-04 16:37 | 43.01187 | 90.26680 | 36797 ft | 542 kts | 99° |
| 2026-05-04 16:38 | 42.99391 | 90.46989 | 36781 ft | 543 kts | 99° |
| 2026-05-04 16:39 | 42.97031 | 90.72718 | 36775 ft | 542 kts | 100° |
| 2026-05-04 16:40 | 42.95099 | 90.93185 | 36766 ft | 544 kts | 100° |
| 2026-05-04 16:41 | 42.92683 | 91.18734 | 36756 ft | 545 kts | 100° |
| 2026-05-04 16:43 | 42.90202 | 91.44321 | 36751 ft | 545 kts | 100° |
| 2026-05-04 16:43 | 42.88684 | 91.59663 | 36755 ft | 546 kts | 100° |
| 2026-05-04 16:45 | 42.85529 | 91.90439 | 36745 ft | 547 kts | 101° |
| 2026-05-04 16:46 | 42.82864 | 92.16024 | 36726 ft | 548 kts | 101° |
| 2026-05-04 16:47 | 42.80703 | 92.36524 | 36721 ft | 548 kts | 101° |
| 2026-05-04 16:48 | 42.78475 | 92.57250 | 36711 ft | 550 kts | 101° |
| 2026-05-04 16:49 | 42.76224 | 92.77806 | 36713 ft | 552 kts | 101° |
| 2026-05-04 16:50 | 42.73889 | 92.98493 | 36705 ft | 552 kts | 101° |
| 2026-05-04 16:51 | 42.72113 | 93.13954 | 36707 ft | 551 kts | 101° |
| 2026-05-04 16:52 | 42.69757 | 93.34543 | 36705 ft | 551 kts | 101° |
| 2026-05-04 16:53 | 42.67963 | 93.49987 | 36709 ft | 551 kts | 101° |
| 2026-05-04 16:54 | 42.65548 | 93.70482 | 36705 ft | 551 kts | 101° |
| 2026-05-04 16:55 | 42.61849 | 94.01230 | 36716 ft | 551 kts | 102° |
| 2026-05-04 16:56 | 42.58633 | 94.26896 | 36662 ft | 550 kts | 101° |
| 2026-05-04 16:57 | 42.56737 | 94.42124 | 36660 ft | 550 kts | 101° |
| 2026-05-04 16:58 | 42.54171 | 94.62455 | 36684 ft | 549 kts | 101° |
| 2026-05-04 17:00 | 42.50221 | 94.93144 | 36685 ft | 549 kts | 102° |
| 2026-05-04 17:01 | 42.47090 | 95.16871 | 36695 ft | 548 kts | 102° |
| 2026-05-04 17:02 | 42.44127 | 95.38726 | 36705 ft | 548 kts | 102° |
| 2026-05-04 17:03 | 42.42282 | 95.52419 | 36715 ft | 549 kts | 102° |
| 2026-05-04 17:03 | 42.40230 | 95.67485 | 36721 ft | 548 kts | 102° |
| 2026-05-04 17:04 | 42.38456 | 95.88134 | 36731 ft | 550 kts | 92° |
| 2026-05-04 17:05 | 42.38086 | 96.08786 | 36725 ft | 551 kts | 92° |
| 2026-05-04 17:06 | 42.37655 | 96.24211 | 36745 ft | 551 kts | 92° |
| 2026-05-04 17:07 | 42.37234 | 96.38111 | 36746 ft | 551 kts | 92° |
| 2026-05-04 17:07 | 42.36864 | 96.50107 | 36744 ft | 552 kts | 92° |
| 2026-05-04 17:08 | 42.36367 | 96.65627 | 36729 ft | 554 kts | 92° |
| 2026-05-04 17:09 | 42.36018 | 96.76156 | 36728 ft | 554 kts | 92° |
| 2026-05-04 17:09 | 42.35665 | 96.86459 | 36720 ft | 554 kts | 92° |
| 2026-05-04 17:10 | 42.34669 | 97.12551 | 36715 ft | 553 kts | 92° |
| 2026-05-04 17:11 | 42.34288 | 97.22792 | 36710 ft | 553 kts | 92° |
| 2026-05-04 17:12 | 42.33687 | 97.38505 | 36699 ft | 553 kts | 93° |
| 2026-05-04 17:13 | 42.32644 | 97.64402 | 36847 ft | 553 kts | 93° |
| 2026-05-04 17:14 | 42.31990 | 97.79959 | 37324 ft | 553 kts | 93° |
| 2026-05-04 17:14 | 42.31768 | 97.85134 | 37474 ft | 553 kts | 93° |
| 2026-05-04 17:14 | 42.31318 | 97.95435 | 37764 ft | 553 kts | 93° |
| 2026-05-04 17:15 | 42.31085 | 98.00613 | 37925 ft | 552 kts | 93° |
| 2026-05-04 17:15 | 42.30581 | 98.10964 | 38202 ft | 552 kts | 94° |
| 2026-05-04 17:16 | 42.30083 | 98.21310 | 38458 ft | 551 kts | 93° |
| 2026-05-04 17:16 | 42.29341 | 98.36738 | 38679 ft | 549 kts | 93° |
| 2026-05-04 17:17 | 42.29079 | 98.41884 | 38679 ft | 549 kts | 93° |
| 2026-05-04 17:18 | 42.28016 | 98.62483 | 38675 ft | 550 kts | 94° |
| 2026-05-04 17:19 | 42.26921 | 98.83124 | 38662 ft | 552 kts | 93° |
| 2026-05-04 17:20 | 42.25789 | 99.03751 | 38667 ft | 552 kts | 94° |
| 2026-05-04 17:20 | 42.24909 | 99.19294 | 38648 ft | 553 kts | 93° |
| 2026-05-04 17:21 | 42.23709 | 99.39998 | 38636 ft | 554 kts | 94° |
| 2026-05-04 17:22 | 42.23066 | 99.50281 | 38639 ft | 554 kts | 94° |
| 2026-05-04 17:23 | 42.21774 | 99.70950 | 38636 ft | 554 kts | 93° |
| 2026-05-04 17:24 | 42.20805 | 99.86514 | 38635 ft | 554 kts | 93° |
| 2026-05-04 17:25 | 42.19478 | 100.07265 | 38629 ft | 555 kts | 93° |
| 2026-05-04 17:26 | 42.18122 | 100.27879 | 38614 ft | 555 kts | 93° |
| 2026-05-04 17:27 | 42.16351 | 100.53899 | 38612 ft | 555 kts | 94° |
| 2026-05-04 17:28 | 42.14854 | 100.74432 | 38612 ft | 557 kts | 93° |
| 2026-05-04 17:29 | 42.12256 | 101.05574 | 38614 ft | 558 kts | 104° |
| 2026-05-04 17:31 | 42.05766 | 101.30117 | 38624 ft | 559 kts | 110° |
| 2026-05-04 17:32 | 41.99207 | 101.54960 | 38618 ft | 561 kts | 109° |
| 2026-05-04 17:33 | 41.94010 | 101.74574 | 38615 ft | 561 kts | 109° |
| 2026-05-04 17:34 | 41.88704 | 101.94415 | 38616 ft | 562 kts | 109° |
| 2026-05-04 17:35 | 41.82050 | 102.18920 | 38627 ft | 564 kts | 109° |
| 2026-05-04 17:36 | 41.79352 | 102.28771 | 38627 ft | 564 kts | 109° |
| 2026-05-04 17:36 | 41.76618 | 102.38784 | 38627 ft | 564 kts | 109° |
| 2026-05-04 17:37 | 41.73946 | 102.48543 | 38632 ft | 565 kts | 108° |
| 2026-05-04 17:37 | 41.71201 | 102.58531 | 38615 ft | 565 kts | 108° |
| 2026-05-04 17:38 | 41.68480 | 102.68379 | 38635 ft | 564 kts | 108° |
| 2026-05-04 17:38 | 41.65747 | 102.78154 | 38643 ft | 564 kts | 108° |
| 2026-05-04 17:39 | 41.61606 | 102.92918 | 38642 ft | 563 kts | 108° |
| 2026-05-04 17:39 | 41.58853 | 103.02712 | 38642 ft | 563 kts | 108° |
| 2026-05-04 17:40 | 41.56148 | 103.12311 | 38643 ft | 563 kts | 108° |
| 2026-05-04 17:40 | 41.53376 | 103.22131 | 38645 ft | 562 kts | 108° |
| 2026-05-04 17:41 | 41.50575 | 103.32030 | 38645 ft | 561 kts | 108° |
| 2026-05-04 17:41 | 41.47808 | 103.41769 | 38650 ft | 561 kts | 108° |
| 2026-05-04 17:42 | 41.45059 | 103.51404 | 38659 ft | 561 kts | 108° |
| 2026-05-04 17:42 | 41.42298 | 103.61041 | 38650 ft | 559 kts | 108° |
| 2026-05-04 17:43 | 41.39551 | 103.70601 | 38654 ft | 559 kts | 108° |
| 2026-05-04 17:43 | 41.36723 | 103.80402 | 38651 ft | 559 kts | 108° |
| 2026-05-04 17:44 | 41.33953 | 103.89959 | 38654 ft | 556 kts | 107° |
| 2026-05-04 17:44 | 41.31145 | 103.99620 | 38657 ft | 554 kts | 108° |
| 2026-05-04 17:45 | 41.28332 | 104.09162 | 38653 ft | 554 kts | 108° |
| 2026-05-04 17:45 | 41.25548 | 104.18573 | 38652 ft | 554 kts | 108° |
| 2026-05-04 17:46 | 41.22708 | 104.28210 | 38656 ft | 552 kts | 107° |
| 2026-05-04 17:46 | 41.19950 | 104.37564 | 38666 ft | 551 kts | 107° |
| 2026-05-04 17:47 | 41.17127 | 104.47105 | 38666 ft | 551 kts | 107° |
| 2026-05-04 17:47 | 41.14323 | 104.56443 | 38666 ft | 552 kts | 109° |
| 2026-05-04 17:48 | 41.11242 | 104.65873 | 38665 ft | 553 kts | 110° |
| 2026-05-04 17:48 | 41.08085 | 104.75244 | 38669 ft | 553 kts | 110° |
| 2026-05-04 17:49 | 41.04989 | 104.84456 | 38677 ft | 553 kts | 110° |
| 2026-05-04 17:49 | 41.02364 | 104.92291 | 38683 ft | 553 kts | 110° |
| 2026-05-04 17:50 | 40.99253 | 105.01564 | 38680 ft | 550 kts | 110° |
| 2026-05-04 17:50 | 40.95619 | 105.12356 | 38692 ft | 549 kts | 110° |
| 2026-05-04 17:51 | 40.92500 | 105.21578 | 38698 ft | 549 kts | 110° |
| 2026-05-04 17:51 | 40.89426 | 105.30637 | 38711 ft | 549 kts | 110° |
| 2026-05-04 17:52 | 40.86779 | 105.38414 | 38706 ft | 547 kts | 110° |
| 2026-05-04 17:52 | 40.83652 | 105.47578 | 38706 ft | 547 kts | 110° |
| 2026-05-04 17:53 | 40.80552 | 105.56612 | 38709 ft | 547 kts | 110° |
| 2026-05-04 17:53 | 40.77336 | 105.65863 | 38731 ft | 547 kts | 111° |
| 2026-05-04 17:54 | 40.74183 | 105.74950 | 38714 ft | 544 kts | 110° |
| 2026-05-04 17:54 | 40.71075 | 105.83933 | 38721 ft | 544 kts | 110° |
| 2026-05-04 17:55 | 40.67916 | 105.93048 | 38718 ft | 544 kts | 110° |
| 2026-05-04 17:55 | 40.64790 | 106.02034 | 38714 ft | 544 kts | 111° |
| 2026-05-04 17:56 | 40.61622 | 106.11106 | 38720 ft | 540 kts | 111° |
| 2026-05-04 17:56 | 40.58486 | 106.20058 | 38723 ft | 540 kts | 111° |
| 2026-05-04 17:57 | 40.55321 | 106.29068 | 38718 ft | 540 kts | 111° |
| 2026-05-04 17:57 | 40.52210 | 106.37897 | 38707 ft | 539 kts | 111° |
| 2026-05-04 17:58 | 40.49040 | 106.46858 | 38704 ft | 537 kts | 111° |
| 2026-05-04 17:58 | 40.45880 | 106.55754 | 38704 ft | 537 kts | 112° |
| 2026-05-04 17:59 | 40.42690 | 106.64616 | 38699 ft | 537 kts | 112° |
| 2026-05-04 18:00 | 40.37982 | 106.77739 | 38698 ft | 534 kts | 112° |
| 2026-05-04 18:00 | 40.34766 | 106.86710 | 38699 ft | 534 kts | 112° |
| 2026-05-04 18:01 | 40.31927 | 106.95660 | 38701 ft | 528 kts | 101° |
| 2026-05-04 18:01 | 40.30957 | 107.04844 | 38697 ft | 514 kts | 82° |
| 2026-05-04 18:02 | 40.32076 | 107.14022 | 38706 ft | 498 kts | 67° |
| 2026-05-04 18:02 | 40.33046 | 107.18378 | 38703 ft | 498 kts | 67° |
| 2026-05-04 18:02 | 40.34739 | 107.27224 | 38709 ft | 503 kts | 72° |
| 2026-05-04 18:03 | 40.35996 | 107.36270 | 38710 ft | 505 kts | 75° |
| 2026-05-04 18:03 | 40.37086 | 107.45389 | 38709 ft | 506 kts | 76° |
| 2026-05-04 18:04 | 40.38163 | 107.54519 | 38711 ft | 506 kts | 75° |
| 2026-05-04 18:05 | 40.39782 | 107.68079 | 38714 ft | 506 kts | 75° |
| 2026-05-04 18:05 | 40.40879 | 107.77279 | 38720 ft | 507 kts | 76° |
| 2026-05-04 18:06 | 40.42505 | 107.91070 | 38710 ft | 507 kts | 76° |
| 2026-05-04 18:06 | 40.43546 | 108.00084 | 38710 ft | 507 kts | 77° |
| 2026-05-04 18:07 | 40.44584 | 108.09296 | 38708 ft | 507 kts | 76° |
| 2026-05-04 18:07 | 40.45615 | 108.18344 | 38712 ft | 507 kts | 76° |
| 2026-05-04 18:08 | 40.46667 | 108.27560 | 38711 ft | 507 kts | 76° |
| 2026-05-04 18:08 | 40.47717 | 108.36809 | 38704 ft | 507 kts | 76° |
| 2026-05-04 18:09 | 40.49767 | 108.55085 | 38709 ft | 506 kts | 77° |
| 2026-05-04 18:10 | 40.50775 | 108.64166 | 38711 ft | 506 kts | 77° |
| 2026-05-04 18:10 | 40.51788 | 108.73367 | 38717 ft | 507 kts | 77° |
| 2026-05-04 18:11 | 40.52796 | 108.82607 | 38717 ft | 506 kts | 78° |
| 2026-05-04 18:11 | 40.53783 | 108.91713 | 38716 ft | 506 kts | 78° |
| 2026-05-04 18:12 | 40.54770 | 109.00872 | 38719 ft | 506 kts | 78° |
| 2026-05-04 18:12 | 40.55726 | 109.10025 | 38719 ft | 506 kts | 78° |
| 2026-05-04 18:13 | 40.56667 | 109.19182 | 38729 ft | 505 kts | 78° |
| 2026-05-04 18:14 | 40.58102 | 109.32928 | 38734 ft | 506 kts | 78° |
| 2026-05-04 18:14 | 40.59045 | 109.42001 | 38739 ft | 506 kts | 78° |
| 2026-05-04 18:15 | 40.60929 | 109.60338 | 38750 ft | 504 kts | 78° |
| 2026-05-04 18:16 | 40.61847 | 109.69383 | 38751 ft | 504 kts | 78° |
| 2026-05-04 18:16 | 40.62774 | 109.78594 | 38754 ft | 504 kts | 78° |
| 2026-05-04 18:17 | 40.64143 | 109.92339 | 38764 ft | 503 kts | 78° |
| 2026-05-04 18:18 | 40.64897 | 110.06171 | 38767 ft | 508 kts | 87° |
| 2026-05-04 18:18 | 40.64790 | 110.15350 | 38778 ft | 508 kts | 88° |
| 2026-05-04 18:19 | 40.64629 | 110.29374 | 38781 ft | 507 kts | 87° |
| 2026-05-04 18:19 | 40.64566 | 110.38692 | 38785 ft | 507 kts | 87° |
| 2026-05-04 18:20 | 40.64502 | 110.47825 | 38799 ft | 507 kts | 87° |
| 2026-05-04 18:20 | 40.64417 | 110.57225 | 38795 ft | 505 kts | 87° |
| 2026-05-04 18:21 | 40.64337 | 110.66382 | 38794 ft | 506 kts | 87° |
| 2026-05-04 18:21 | 40.64248 | 110.75705 | 38798 ft | 505 kts | 87° |
| 2026-05-04 18:22 | 40.64155 | 110.85006 | 38804 ft | 504 kts | 87° |
| 2026-05-04 18:22 | 40.64056 | 110.94116 | 38804 ft | 504 kts | 87° |
| 2026-05-04 18:23 | 40.63949 | 111.03344 | 38802 ft | 504 kts | 87° |
| 2026-05-04 18:23 | 40.63834 | 111.12620 | 38816 ft | 504 kts | 88° |
| 2026-05-04 18:24 | 40.63701 | 111.21852 | 38810 ft | 504 kts | 88° |
| 2026-05-04 18:24 | 40.63551 | 111.31062 | 38815 ft | 504 kts | 88° |
| 2026-05-04 18:25 | 40.63408 | 111.40189 | 38816 ft | 504 kts | 88° |
| 2026-05-04 18:25 | 40.63263 | 111.49518 | 38818 ft | 504 kts | 88° |
| 2026-05-04 18:26 | 40.63115 | 111.58592 | 38827 ft | 504 kts | 88° |
| 2026-05-04 18:26 | 40.62956 | 111.67879 | 38827 ft | 504 kts | 88° |
| 2026-05-04 18:27 | 40.62789 | 111.77179 | 38826 ft | 504 kts | 88° |
| 2026-05-04 18:27 | 40.62617 | 111.86356 | 38833 ft | 504 kts | 88° |
| 2026-05-04 18:28 | 40.62432 | 111.95576 | 38837 ft | 504 kts | 88° |
| 2026-05-04 18:28 | 40.62221 | 112.04752 | 38837 ft | 505 kts | 88° |
| 2026-05-04 18:29 | 40.62011 | 112.13977 | 38840 ft | 504 kts | 88° |
| 2026-05-04 18:29 | 40.61804 | 112.23193 | 38839 ft | 504 kts | 88° |
| 2026-05-04 18:30 | 40.61483 | 112.37028 | 38838 ft | 505 kts | 88° |
| 2026-05-04 18:31 | 40.61259 | 112.46181 | 38828 ft | 505 kts | 89° |
| 2026-05-04 18:31 | 40.60862 | 112.55396 | 38831 ft | 503 kts | 91° |
| 2026-05-04 18:32 | 40.60324 | 112.64629 | 38829 ft | 503 kts | 91° |
| 2026-05-04 18:32 | 40.59753 | 112.73764 | 38826 ft | 503 kts | 92° |
| 2026-05-04 18:33 | 40.59022 | 112.82997 | 38830 ft | 503 kts | 92° |
| 2026-05-04 18:33 | 40.58382 | 112.92149 | 38829 ft | 502 kts | 92° |
| 2026-05-04 18:34 | 40.57782 | 113.01297 | 38830 ft | 502 kts | 92° |
| 2026-05-04 18:34 | 40.57179 | 113.10429 | 38822 ft | 502 kts | 92° |
| 2026-05-04 18:35 | 40.56573 | 113.19413 | 38825 ft | 501 kts | 92° |
| 2026-05-04 18:35 | 40.55939 | 113.28707 | 38825 ft | 501 kts | 92° |
| 2026-05-04 18:36 | 40.55320 | 113.37661 | 38824 ft | 501 kts | 92° |
| 2026-05-04 18:36 | 40.54670 | 113.46965 | 38828 ft | 501 kts | 92° |
| 2026-05-04 18:37 | 40.54037 | 113.55916 | 38824 ft | 501 kts | 92° |
| 2026-05-04 18:37 | 40.53375 | 113.65158 | 38816 ft | 501 kts | 92° |
| 2026-05-04 18:38 | 40.52718 | 113.74261 | 38811 ft | 502 kts | 93° |
| 2026-05-04 18:38 | 40.52058 | 113.83274 | 38818 ft | 502 kts | 92° |
| 2026-05-04 18:39 | 40.51355 | 113.92544 | 38814 ft | 503 kts | 93° |
| 2026-05-04 18:39 | 40.50710 | 114.01563 | 38818 ft | 502 kts | 91° |
| 2026-05-04 18:40 | 40.50288 | 114.10834 | 38826 ft | 502 kts | 90° |
| 2026-05-04 18:40 | 40.49930 | 114.19998 | 38822 ft | 502 kts | 90° |
| 2026-05-04 18:41 | 40.49552 | 114.29167 | 38825 ft | 502 kts | 90° |
| 2026-05-04 18:41 | 40.49223 | 114.36783 | 38823 ft | 502 kts | 90° |
| 2026-05-04 18:42 | 40.48819 | 114.45892 | 38820 ft | 504 kts | 90° |
| 2026-05-04 18:42 | 40.48402 | 114.55134 | 38820 ft | 504 kts | 90° |
| 2026-05-04 18:43 | 40.47982 | 114.64264 | 38821 ft | 504 kts | 90° |
| 2026-05-04 18:43 | 40.47554 | 114.73438 | 38818 ft | 504 kts | 90° |
| 2026-05-04 18:44 | 40.47118 | 114.82641 | 38822 ft | 504 kts | 90° |
| 2026-05-04 18:44 | 40.46674 | 114.91825 | 38820 ft | 504 kts | 90° |
| 2026-05-04 18:45 | 40.46231 | 115.00858 | 38825 ft | 504 kts | 90° |
| 2026-05-04 18:45 | 40.45755 | 115.10186 | 38823 ft | 505 kts | 90° |
| 2026-05-04 18:46 | 40.45256 | 115.19371 | 38822 ft | 504 kts | 90° |
| 2026-05-04 18:46 | 40.44776 | 115.28401 | 38822 ft | 505 kts | 90° |
| 2026-05-04 18:47 | 40.44285 | 115.37766 | 38820 ft | 504 kts | 91° |
| 2026-05-04 18:47 | 40.43803 | 115.46884 | 38822 ft | 503 kts | 91° |
| 2026-05-04 18:48 | 40.43248 | 115.56039 | 38825 ft | 504 kts | 92° |
| 2026-05-04 18:48 | 40.42523 | 115.65188 | 38836 ft | 504 kts | 93° |
| 2026-05-04 18:49 | 40.41769 | 115.74294 | 38828 ft | 503 kts | 93° |
| 2026-05-04 18:49 | 40.41031 | 115.83308 | 38833 ft | 503 kts | 93° |
| 2026-05-04 18:50 | 40.40274 | 115.92561 | 38835 ft | 503 kts | 93° |
| 2026-05-04 18:50 | 40.39520 | 116.01711 | 38841 ft | 503 kts | 93° |
| 2026-05-04 18:51 | 40.38772 | 116.10703 | 38838 ft | 503 kts | 93° |
| 2026-05-04 18:51 | 40.38008 | 116.19789 | 38836 ft | 503 kts | 93° |
| 2026-05-04 18:52 | 40.37229 | 116.28956 | 38826 ft | 502 kts | 93° |
| 2026-05-04 18:52 | 40.36446 | 116.38100 | 38828 ft | 502 kts | 93° |
| 2026-05-04 18:53 | 40.35657 | 116.47193 | 38828 ft | 502 kts | 94° |
| 2026-05-04 18:53 | 40.34319 | 116.56184 | 38831 ft | 505 kts | 105° |
| 2026-05-04 18:54 | 40.31318 | 116.64531 | 38829 ft | 510 kts | 123° |
| 2026-05-04 18:54 | 40.26648 | 116.71416 | 38829 ft | 511 kts | 141° |
| 2026-05-04 18:55 | 40.20639 | 116.76335 | 38826 ft | 510 kts | 158° |
| 2026-05-04 18:55 | 40.13844 | 116.79002 | 38830 ft | 507 kts | 172° |
| 2026-05-04 18:55 | 40.10362 | 116.79764 | 38828 ft | 506 kts | 174° |
| 2026-05-04 18:56 | 40.03384 | 116.81024 | 38818 ft | 506 kts | 175° |
| 2026-05-04 18:56 | 39.96485 | 116.82302 | 38818 ft | 506 kts | 174° |
| 2026-05-04 18:57 | 39.89507 | 116.83677 | 38815 ft | 507 kts | 174° |
| 2026-05-04 18:57 | 39.82617 | 116.85059 | 38815 ft | 507 kts | 174° |
| 2026-05-04 18:58 | 39.75590 | 116.86495 | 38811 ft | 507 kts | 173° |
| 2026-05-04 18:58 | 39.68604 | 116.87952 | 38818 ft | 510 kts | 173° |
| 2026-05-04 18:59 | 39.61605 | 116.89411 | 38816 ft | 510 kts | 173° |
| 2026-05-04 18:59 | 39.54604 | 116.90864 | 38809 ft | 510 kts | 173° |
| 2026-05-04 19:00 | 39.47630 | 116.92307 | 38820 ft | 511 kts | 173° |
| 2026-05-04 19:00 | 39.40567 | 116.93766 | 38823 ft | 511 kts | 173° |
| 2026-05-04 19:01 | 39.33610 | 116.95200 | 38817 ft | 511 kts | 173° |
| 2026-05-04 19:01 | 39.26575 | 116.97032 | 38820 ft | 514 kts | 164° |
| 2026-05-04 19:02 | 39.20100 | 117.01004 | 38825 ft | 516 kts | 145° |
| 2026-05-04 19:02 | 39.14878 | 117.07272 | 38824 ft | 514 kts | 126° |
| 2026-05-04 19:03 | 39.11337 | 117.15121 | 38830 ft | 509 kts | 109° |
| 2026-05-04 19:03 | 39.09474 | 117.23844 | 38830 ft | 503 kts | 96° |
| 2026-05-04 19:04 | 39.08446 | 117.32742 | 38829 ft | 503 kts | 94° |
| 2026-05-04 19:04 | 39.07799 | 117.41665 | 38828 ft | 499 kts | 88° |
| 2026-05-04 19:05 | 39.07739 | 117.50574 | 38835 ft | 498 kts | 86° |
| 2026-05-04 19:05 | 39.07731 | 117.59493 | 38837 ft | 498 kts | 86° |
| 2026-05-04 19:06 | 39.07659 | 117.68420 | 38842 ft | 499 kts | 87° |
| 2026-05-04 19:06 | 39.07550 | 117.77301 | 38851 ft | 499 kts | 87° |
| 2026-05-04 19:07 | 39.07431 | 117.86190 | 38856 ft | 499 kts | 87° |
| 2026-05-04 19:07 | 39.07307 | 117.95091 | 38856 ft | 499 kts | 87° |
| 2026-05-04 19:08 | 39.07030 | 118.03982 | 38857 ft | 502 kts | 93° |
| 2026-05-04 19:08 | 39.05832 | 118.12867 | 38866 ft | 505 kts | 98° |
| 2026-05-04 19:09 | 39.04307 | 118.21836 | 38867 ft | 505 kts | 99° |
| 2026-05-04 19:09 | 39.02852 | 118.30607 | 38868 ft | 504 kts | 98° |
| 2026-05-04 19:10 | 39.01438 | 118.39435 | 38873 ft | 504 kts | 98° |
| 2026-05-04 19:10 | 39.00034 | 118.48240 | 38873 ft | 504 kts | 98° |
| 2026-05-04 19:11 | 38.98604 | 118.57056 | 38878 ft | 504 kts | 98° |
| 2026-05-04 19:11 | 38.97176 | 118.65818 | 38879 ft | 504 kts | 98° |
| 2026-05-04 19:12 | 38.95020 | 118.79024 | 38860 ft | 503 kts | 99° |
| 2026-05-04 19:13 | 38.93601 | 118.87674 | 38882 ft | 503 kts | 99° |
| 2026-05-04 19:13 | 38.92144 | 118.96516 | 38893 ft | 503 kts | 99° |
| 2026-05-04 19:14 | 38.90670 | 119.05350 | 38888 ft | 503 kts | 99° |
| 2026-05-04 19:14 | 38.89202 | 119.14067 | 38893 ft | 503 kts | 99° |
| 2026-05-04 19:15 | 38.87726 | 119.22848 | 38899 ft | 503 kts | 99° |
| 2026-05-04 19:15 | 38.86249 | 119.31623 | 38903 ft | 503 kts | 99° |
| 2026-05-04 19:16 | 38.84766 | 119.40392 | 38903 ft | 503 kts | 99° |
| 2026-05-04 19:16 | 38.83274 | 119.49168 | 38905 ft | 503 kts | 99° |
| 2026-05-04 19:17 | 38.81792 | 119.57847 | 38903 ft | 503 kts | 100° |
| 2026-05-04 19:17 | 38.80294 | 119.66579 | 38909 ft | 503 kts | 100° |
| 2026-05-04 19:18 | 38.78756 | 119.75491 | 38916 ft | 503 kts | 100° |
| 2026-05-04 19:18 | 38.77271 | 119.84086 | 38918 ft | 503 kts | 100° |
| 2026-05-04 19:19 | 38.75763 | 119.92961 | 38919 ft | 504 kts | 102° |
| 2026-05-04 19:19 | 38.73156 | 120.01294 | 38921 ft | 507 kts | 120° |
| 2026-05-04 19:20 | 38.69256 | 120.08841 | 38924 ft | 509 kts | 123° |
| 2026-05-04 19:20 | 38.65311 | 120.16366 | 38930 ft | 509 kts | 123° |
| 2026-05-04 19:21 | 38.61505 | 120.23981 | 38933 ft | 508 kts | 115° |
| 2026-05-04 19:21 | 38.59293 | 120.32474 | 38939 ft | 503 kts | 98° |
| 2026-05-04 19:22 | 38.58216 | 120.41305 | 38944 ft | 503 kts | 96° |
| 2026-05-04 19:22 | 38.57045 | 120.50144 | 38941 ft | 505 kts | 99° |
| 2026-05-04 19:23 | 38.55662 | 120.58966 | 38940 ft | 506 kts | 100° |
| 2026-05-04 19:23 | 38.54222 | 120.67761 | 38946 ft | 506 kts | 100° |
| 2026-05-04 19:24 | 38.52788 | 120.76522 | 38953 ft | 506 kts | 100° |
| 2026-05-04 19:24 | 38.51380 | 120.85151 | 38952 ft | 504 kts | 99° |
| 2026-05-04 19:25 | 38.49927 | 120.94025 | 38946 ft | 504 kts | 99° |
| 2026-05-04 19:25 | 38.48487 | 121.02781 | 38950 ft | 504 kts | 100° |
| 2026-05-04 19:26 | 38.47045 | 121.11504 | 38953 ft | 504 kts | 100° |
| 2026-05-04 19:26 | 38.45589 | 121.20293 | 38954 ft | 504 kts | 100° |
| 2026-05-04 19:27 | 38.44168 | 121.28996 | 38962 ft | 505 kts | 99° |
| 2026-05-04 19:27 | 38.42744 | 121.37814 | 38963 ft | 506 kts | 99° |
| 2026-05-04 19:28 | 38.41345 | 121.46443 | 38965 ft | 506 kts | 100° |
| 2026-05-04 19:28 | 38.39871 | 121.55341 | 38969 ft | 506 kts | 100° |
| 2026-05-04 19:29 | 38.38403 | 121.64133 | 38975 ft | 507 kts | 100° |
| 2026-05-04 19:29 | 38.36933 | 121.72914 | 38970 ft | 507 kts | 100° |
| 2026-05-04 19:30 | 38.35456 | 121.81708 | 38978 ft | 508 kts | 101° |
| 2026-05-04 19:30 | 38.33970 | 121.90514 | 38984 ft | 509 kts | 101° |
| 2026-05-04 19:31 | 38.32727 | 121.97844 | 38987 ft | 509 kts | 101° |
| 2026-05-04 19:31 | 38.30984 | 122.08073 | 38993 ft | 509 kts | 101° |
| 2026-05-04 19:32 | 38.29475 | 122.16887 | 38989 ft | 510 kts | 101° |
| 2026-05-04 19:32 | 38.28155 | 122.24267 | 38996 ft | 510 kts | 105° |
| 2026-05-04 19:32 | 38.26468 | 122.29840 | 38999 ft | 511 kts | 117° |
| 2026-05-04 19:33 | 38.24733 | 122.33778 | 38999 ft | 511 kts | 122° |
| 2026-05-04 19:33 | 38.21562 | 122.40133 | 38998 ft | 512 kts | 123° |
| 2026-05-04 19:34 | 38.17869 | 122.47727 | 39007 ft | 512 kts | 121° |
| 2026-05-04 19:34 | 38.14237 | 122.55614 | 39010 ft | 512 kts | 120° |
| 2026-05-04 19:35 | 38.10616 | 122.63410 | 39014 ft | 512 kts | 125° |
| 2026-05-04 19:35 | 38.06031 | 122.70296 | 39021 ft | 511 kts | 135° |
| 2026-05-04 19:36 | 38.00984 | 122.76659 | 39023 ft | 511 kts | 137° |
| 2026-05-04 19:36 | 37.95999 | 122.82972 | 39023 ft | 512 kts | 136° |
| 2026-05-04 19:37 | 37.90975 | 122.89482 | 39033 ft | 512 kts | 135° |
| 2026-05-04 19:37 | 37.86018 | 122.95948 | 39035 ft | 512 kts | 136° |
| 2026-05-04 19:38 | 37.81113 | 123.02334 | 39041 ft | 512 kts | 136° |
| 2026-05-04 19:38 | 37.76118 | 123.08817 | 39050 ft | 512 kts | 136° |
| 2026-05-04 19:39 | 37.71182 | 123.15206 | 39050 ft | 512 kts | 136° |
| 2026-05-04 19:39 | 37.66162 | 123.21691 | 39052 ft | 512 kts | 136° |
| 2026-05-04 19:40 | 37.61185 | 123.28108 | 39062 ft | 512 kts | 136° |
| 2026-05-04 19:40 | 37.56212 | 123.34533 | 39060 ft | 512 kts | 134° |
| 2026-05-04 19:41 | 37.51685 | 123.41473 | 39052 ft | 513 kts | 128° |
| 2026-05-04 19:41 | 37.47466 | 123.48744 | 39070 ft | 514 kts | 128° |
| 2026-05-04 19:42 | 37.43252 | 123.56014 | 39067 ft | 514 kts | 128° |
| 2026-05-04 19:42 | 37.38997 | 123.63228 | 39070 ft | 513 kts | 128° |
| 2026-05-04 19:43 | 37.34744 | 123.70383 | 39075 ft | 514 kts | 129° |
| 2026-05-04 19:43 | 37.30462 | 123.77564 | 39078 ft | 514 kts | 129° |
| 2026-05-04 19:44 | 37.26176 | 123.84742 | 39078 ft | 514 kts | 129° |
| 2026-05-04 19:44 | 37.21887 | 123.91909 | 38988 ft | 513 kts | 129° |
| 2026-05-04 19:44 | 37.19833 | 123.95546 | 38870 ft | 511 kts | 124° |
| 2026-05-04 19:45 | 37.18132 | 123.99480 | 38690 ft | 513 kts | 115° |
| 2026-05-04 19:45 | 37.16949 | 124.03643 | 38273 ft | 514 kts | 105° |
| 2026-05-04 19:45 | 37.16284 | 124.08040 | 37660 ft | 514 kts | 95° |
| 2026-05-04 19:45 | 37.16179 | 124.12485 | 37071 ft | 508 kts | 85° |
| 2026-05-04 19:46 | 37.16547 | 124.16871 | 36517 ft | 505 kts | 81° |
| 2026-05-04 19:46 | 37.17056 | 124.21216 | 35970 ft | 503 kts | 81° |
| 2026-05-04 19:46 | 37.17495 | 124.25563 | 35437 ft | 502 kts | 83° |
| 2026-05-04 19:46 | 37.17801 | 124.29929 | 34868 ft | 501 kts | 85° |
| 2026-05-04 19:47 | 37.17997 | 124.34274 | 34316 ft | 498 kts | 86° |
| 2026-05-04 19:47 | 37.18127 | 124.38611 | 33695 ft | 496 kts | 87° |
| 2026-05-04 19:47 | 37.18224 | 124.42934 | 33102 ft | 495 kts | 88° |
| 2026-05-04 19:47 | 37.18309 | 124.47249 | 32516 ft | 494 kts | 88° |
| 2026-05-04 19:48 | 37.18395 | 124.51552 | 31929 ft | 493 kts | 88° |
| 2026-05-04 19:48 | 37.18485 | 124.55850 | 31355 ft | 493 kts | 88° |
| 2026-05-04 19:48 | 37.18578 | 124.60141 | 30761 ft | 493 kts | 88° |
| 2026-05-04 19:48 | 37.18673 | 124.64436 | 30149 ft | 492 kts | 88° |
| 2026-05-04 19:49 | 37.18768 | 124.68721 | 29444 ft | 492 kts | 87° |
| 2026-05-04 19:49 | 37.18863 | 124.73023 | 28797 ft | 494 kts | 87° |
| 2026-05-04 19:49 | 37.18957 | 124.77338 | 28166 ft | 495 kts | 88° |
| 2026-05-04 19:49 | 37.19049 | 124.81662 | 27549 ft | 498 kts | 88° |
| 2026-05-04 19:50 | 37.19134 | 124.85989 | 26896 ft | 494 kts | 88° |
| 2026-05-04 19:50 | 37.19214 | 124.90284 | 26194 ft | 490 kts | 88° |
| 2026-05-04 19:50 | 37.19293 | 124.94471 | 25516 ft | 485 kts | 88° |
| 2026-05-04 19:50 | 37.19372 | 124.98672 | 24841 ft | 478 kts | 88° |
| 2026-05-04 19:51 | 37.19450 | 125.02824 | 24175 ft | 473 kts | 89° |
| 2026-05-04 19:51 | 37.19527 | 125.06931 | 23316 ft | 467 kts | 89° |
| 2026-05-04 19:51 | 37.19601 | 125.10968 | 22332 ft | 462 kts | 89° |
| 2026-05-04 19:51 | 37.19673 | 125.14970 | 21530 ft | 458 kts | 89° |
| 2026-05-04 19:52 | 37.19743 | 125.18920 | 20827 ft | 449 kts | 89° |
| 2026-05-04 19:52 | 37.19811 | 125.22821 | 20164 ft | 444 kts | 88° |
| 2026-05-04 19:52 | 37.19875 | 125.26565 | 19562 ft | 439 kts | 89° |
| 2026-05-04 19:52 | 37.19941 | 125.30474 | 18922 ft | 434 kts | 88° |
| 2026-05-04 19:53 | 37.20003 | 125.34237 | 18299 ft | 429 kts | 88° |
| 2026-05-04 19:53 | 37.20064 | 125.37970 | 17637 ft | 426 kts | 88° |
| 2026-05-04 19:53 | 37.20123 | 125.41669 | 17189 ft | 423 kts | 89° |
| 2026-05-04 19:53 | 37.20183 | 125.45347 | 16959 ft | 421 kts | 88° |
| 2026-05-04 19:54 | 37.20578 | 125.48984 | 16873 ft | 421 kts | 74° |
| 2026-05-04 19:54 | 37.21692 | 125.52362 | 16817 ft | 421 kts | 62° |
| 2026-05-04 19:54 | 37.23189 | 125.55515 | 16743 ft | 422 kts | 57° |
| 2026-05-04 19:54 | 37.24806 | 125.58598 | 16140 ft | 421 kts | 56° |
| 2026-05-04 19:55 | 37.26429 | 125.61652 | 15537 ft | 420 kts | 56° |
| 2026-05-04 19:55 | 37.28025 | 125.64721 | 14927 ft | 418 kts | 57° |
| 2026-05-04 19:55 | 37.29579 | 125.67786 | 14335 ft | 415 kts | 58° |
| 2026-05-04 19:55 | 37.31104 | 125.70854 | 13719 ft | 413 kts | 58° |
| 2026-05-04 19:56 | 37.32610 | 125.73921 | 13084 ft | 410 kts | 58° |
| 2026-05-04 19:56 | 37.34105 | 125.76945 | 12568 ft | 405 kts | 58° |
| 2026-05-04 19:56 | 37.35569 | 125.79872 | 12370 ft | 383 kts | 57° |
| 2026-05-04 19:56 | 37.36948 | 125.82613 | 12270 ft | 360 kts | 57° |
| 2026-05-04 19:57 | 37.38252 | 125.85200 | 12135 ft | 340 kts | 57° |
| 2026-05-04 19:57 | 37.39486 | 125.87649 | 12014 ft | 323 kts | 57° |
| 2026-05-04 19:57 | 37.40661 | 125.89983 | 11886 ft | 308 kts | 57° |
| 2026-05-04 19:57 | 37.41769 | 125.92186 | 11761 ft | 294 kts | 57° |
| 2026-05-04 19:58 | 37.42838 | 125.94314 | 11635 ft | 282 kts | 57° |
| 2026-05-04 19:58 | 37.43852 | 125.96331 | 11450 ft | 272 kts | 57° |
| 2026-05-04 19:58 | 37.44897 | 125.98314 | 11030 ft | 273 kts | 54° |
| 2026-05-04 19:58 | 37.45977 | 126.00251 | 10471 ft | 265 kts | 53° |
| 2026-05-04 19:59 | 37.47026 | 126.02105 | 9906 ft | 256 kts | 53° |
| 2026-05-04 19:59 | 37.48053 | 126.03912 | 9338 ft | 252 kts | 53° |
| 2026-05-04 19:59 | 37.49072 | 126.05705 | 8815 ft | 250 kts | 53° |
| 2026-05-04 19:59 | 37.50080 | 126.07480 | 8297 ft | 248 kts | 54° |
| 2026-05-04 20:00 | 37.51076 | 126.09235 | 7846 ft | 246 kts | 54° |
| 2026-05-04 20:00 | 37.52070 | 126.10987 | 7414 ft | 245 kts | 54° |
| 2026-05-04 20:00 | 37.53060 | 126.12732 | 6983 ft | 244 kts | 54° |
| 2026-05-04 20:00 | 37.54043 | 126.14467 | 6535 ft | 243 kts | 54° |
| 2026-05-04 20:01 | 37.55011 | 126.16177 | 6071 ft | 234 kts | 54° |
| 2026-05-04 20:01 | 37.55935 | 126.17808 | 5662 ft | 223 kts | 54° |
| 2026-05-04 20:01 | 37.56799 | 126.19337 | 5304 ft | 211 kts | 54° |
| 2026-05-04 20:01 | 37.57633 | 126.20818 | 4969 ft | 204 kts | 54° |
| 2026-05-04 20:02 | 37.58448 | 126.22264 | 4627 ft | 202 kts | 54° |
| 2026-05-04 20:02 | 37.59258 | 126.23701 | 4302 ft | 201 kts | 54° |
| 2026-05-04 20:02 | 37.60067 | 126.25137 | 3972 ft | 201 kts | 54° |
| 2026-05-04 20:02 | 37.60874 | 126.26569 | 3641 ft | 200 kts | 54° |
| 2026-05-04 20:03 | 37.61652 | 126.28026 | 3319 ft | 200 kts | 62° |
| 2026-05-04 20:03 | 37.62059 | 126.29660 | 3015 ft | 190 kts | 89° |
| 2026-05-04 20:03 | 37.61847 | 126.31199 | 2915 ft | 173 kts | 119° |
| 2026-05-04 20:03 | 37.61126 | 126.32358 | 2911 ft | 166 kts | 144° |
| 2026-05-04 20:04 | 37.60249 | 126.33316 | 2906 ft | 168 kts | 144° |
| 2026-05-04 20:04 | 37.59348 | 126.34255 | 2713 ft | 167 kts | 148° |
| 2026-05-04 20:04 | 37.58413 | 126.35115 | 2488 ft | 166 kts | 150° |
| 2026-05-04 20:04 | 37.57478 | 126.35957 | 2251 ft | 164 kts | 150° |
| 2026-05-04 20:05 | 37.56554 | 126.36785 | 2038 ft | 162 kts | 151° |
| 2026-05-04 20:05 | 37.55637 | 126.37587 | 1819 ft | 158 kts | 152° |
| 2026-05-04 20:05 | 37.54738 | 126.38370 | 1593 ft | 156 kts | 150° |
| 2026-05-04 20:05 | 37.53856 | 126.39169 | 1384 ft | 155 kts | 149° |
| 2026-05-04 20:06 | 37.52984 | 126.39954 | 1179 ft | 154 kts | 149° |
| 2026-05-04 20:06 | 37.52110 | 126.40717 | 965 ft | 152 kts | 149° |
| 2026-05-04 20:06 | 37.51248 | 126.41480 | 735 ft | 150 kts | 145° |
| 2026-05-04 20:06 | 37.50403 | 126.42228 | 556 ft | 148 kts | 146° |
| 2026-05-04 20:07 | 37.49576 | 126.42972 | 373 ft | 147 kts | 146° |
| 2026-05-04 20:07 | 37.48744 | 126.43706 | 143 ft | 146 kts | 145° |
| 2026-05-04 20:07 | 37.47937 | 126.44415 | 33 ft | 127 kts | 145° |
| 2026-05-04 20:07 | 37.47378 | 126.44922 | 30 ft | 70 kts | 142° |
| 2026-05-04 20:08 | 37.47138 | 126.45128 | 33 ft | 14 kts | 144° |
| 2026-05-04 20:08 | 37.47070 | 126.45192 | 32 ft | 14 kts | 143° |
| 2026-05-04 20:08 | 37.46976 | 126.45276 | 32 ft | 19 kts | 145° |
| 2026-05-04 20:08 | 37.46853 | 126.45385 | 32 ft | 24 kts | 144° |
| 2026-05-04 20:09 | 37.46707 | 126.45518 | 30 ft | 28 kts | 144° |
| 2026-05-04 20:09 | 37.46540 | 126.45665 | 29 ft | 31 kts | 143° |
| 2026-05-04 20:09 | 37.46387 | 126.45874 | 30 ft | 31 kts | 122° |
| 2026-05-04 20:09 | 37.46329 | 126.46011 | 31 ft | 7 kts | 116° |
| 2026-05-04 20:10 | 37.46314 | 126.46065 | 31 ft | 7 kts | 95° |
| 2026-05-04 20:10 | 37.46348 | 126.46113 | 30 ft | 8 kts | 11° |
| 2026-05-04 20:10 | 37.46420 | 126.46120 | 30 ft | 10 kts | 30° |
| 2026-05-04 20:10 | 37.46447 | 126.46178 | 30 ft | 8 kts | 63° |
| 2026-05-04 20:11 | 37.46471 | 126.46236 | 30 ft | 7 kts | 62° |
| 2026-05-04 20:11 | 37.46498 | 126.46289 | 30 ft | 7 kts | 56° |
| 2026-05-04 20:11 | 37.46524 | 126.46338 | 30 ft | 7 kts | 56° |
| 2026-05-04 20:11 | 37.46552 | 126.46365 | 29 ft | 3 kts | 12° |
| 2026-05-04 20:12 | 37.46577 | 126.46352 | 30 ft | 5 kts | 328° |
| 2026-05-04 20:12 | 37.46618 | 126.46318 | 30 ft | 7 kts | 326° |
| 2026-05-04 20:12 | 37.46621 | 126.46315 | 30 ft | 0 kts | 326° |